<?xml version="1.0" encoding="UTF-8" standalone="no" ?>
<gpx xmlns="http://www.topografix.com/GPX/1/1" xmlns:xsi="http://www.w3.org/2001/XMLSchema-instance" xsi:schemaLocation="http://www.topografix.com/GPX/1/1 http://www.topografix.com/GPX/1/1/gpx.xsd" version="1.1" creator="VisuGPX - https://www.visugpx.com">
  <metadata>
    <name>Rocher d Aran depuis la chapelle de Houndas - Vallée d'Ossau (64) </name>
    <desc><![CDATA[balade via la crête de Saubajot]]></desc>
  </metadata>
  <wpt lat="43.04932" lon="-0.50844">
    <ele>1796.095215</ele>
    <name><![CDATA[1796-Roche]]></name>
    <desc><![CDATA[Rocher d'Aran 1796m]]></desc>
  </wpt>
  <wpt lat="43.05304" lon="-0.51472">
    <ele>1805.948486</ele>
    <name><![CDATA[1806-Ourle]]></name>
    <desc><![CDATA[L'Ourlenotte 1806m]]></desc>
  </wpt>
  <wpt lat="43.05609" lon="-0.52374">
    <ele>1812.918213</ele>
    <name><![CDATA[1813-Ourle]]></name>
    <desc><![CDATA[Pic de l'Ourlène 1813m]]></desc>
  </wpt>
  <wpt lat="43.0446" lon="-0.48591">
    <ele>1322.889893</ele>
    <name><![CDATA[Bifurcatio]]></name>
    <desc><![CDATA[Bifurcation<br>03-OCT-09 8:25:]]></desc>
  </wpt>
  <wpt lat="43.04237" lon="-0.49361">
    <ele>-0.11438</ele>
    <name><![CDATA[Bois de la]]></name>
    <desc><![CDATA[Bois de la Herrère]]></desc>
  </wpt>
  <wpt lat="43.05149" lon="-0.46947">
    <ele>-0.11438</ele>
    <name><![CDATA[Bois de La1]]></name>
    <desc><![CDATA[Bois de Labaigt Dauste]]></desc>
  </wpt>
  <wpt lat="43.04407" lon="-0.4826">
    <ele>-0.11438</ele>
    <name><![CDATA[Cabane]]></name>
  </wpt>
  <wpt lat="43.04104" lon="-0.48466">
    <ele>-0.11438</ele>
    <name><![CDATA[Cabane1]]></name>
    <desc><![CDATA[Cabane]]></desc>
  </wpt>
  <wpt lat="43.0622" lon="-0.45728">
    <ele>-0.11438</ele>
    <name><![CDATA[Chapelle d]]></name>
    <desc><![CDATA[Chapelle de Houndas]]></desc>
  </wpt>
  <wpt lat="43.04426" lon="-0.50295">
    <ele>-0.11438</ele>
    <name><![CDATA[Col D'Aran]]></name>
    <desc><![CDATA[Col D'Aran 1654m]]></desc>
  </wpt>
  <wpt lat="43.05885" lon="-0.46319">
    <ele>-0.11438</ele>
    <name><![CDATA[Depart]]></name>
    <desc><![CDATA[Départ]]></desc>
  </wpt>
  <wpt lat="43.05884" lon="-0.46306">
    <ele>870.833252</ele>
    <name><![CDATA[Parking]]></name>
    <desc><![CDATA[Place pour se garer]]></desc>
  </wpt>
  <trk>
    <name><![CDATA[ACTIVE LOG 001]]></name>
    <trkseg>
      <trkpt lat="43.05892" lon="-0.46308">
        <ele>874.456299</ele>
        <time>2011-05-23T07:32:57Z</time>
      </trkpt>
      <trkpt lat="43.05892" lon="-0.46308">
        <ele>874.456299</ele>
        <time>2011-05-23T07:32:59Z</time>
      </trkpt>
      <trkpt lat="43.05892" lon="-0.46308">
        <ele>873.495117</ele>
        <time>2011-05-23T07:33:00Z</time>
      </trkpt>
      <trkpt lat="43.05892" lon="-0.46308">
        <ele>874.937012</ele>
        <time>2011-05-23T07:33:05Z</time>
      </trkpt>
      <trkpt lat="43.05891" lon="-0.46307">
        <ele>874.456299</ele>
        <time>2011-05-23T07:33:38Z</time>
      </trkpt>
      <trkpt lat="43.05883" lon="-0.46308">
        <ele>873.975586</ele>
        <time>2011-05-23T07:34:00Z</time>
      </trkpt>
      <trkpt lat="43.05869" lon="-0.46314">
        <ele>875.898193</ele>
        <time>2011-05-23T07:34:12Z</time>
      </trkpt>
      <trkpt lat="43.05856" lon="-0.46319">
        <ele>877.821045</ele>
        <time>2011-05-23T07:34:26Z</time>
      </trkpt>
      <trkpt lat="43.05845" lon="-0.46321">
        <ele>877.340576</ele>
        <time>2011-05-23T07:34:38Z</time>
      </trkpt>
      <trkpt lat="43.05831" lon="-0.46328">
        <ele>878.301758</ele>
        <time>2011-05-23T07:34:52Z</time>
      </trkpt>
      <trkpt lat="43.05817" lon="-0.46335">
        <ele>880.705078</ele>
        <time>2011-05-23T07:35:06Z</time>
      </trkpt>
      <trkpt lat="43.058" lon="-0.46342">
        <ele>883.108154</ele>
        <time>2011-05-23T07:35:23Z</time>
      </trkpt>
      <trkpt lat="43.05788" lon="-0.46346">
        <ele>884.550293</ele>
        <time>2011-05-23T07:35:34Z</time>
      </trkpt>
      <trkpt lat="43.05777" lon="-0.46352">
        <ele>886.4729</ele>
        <time>2011-05-23T07:35:46Z</time>
      </trkpt>
      <trkpt lat="43.0577" lon="-0.46361">
        <ele>887.434082</ele>
        <time>2011-05-23T07:36:00Z</time>
      </trkpt>
      <trkpt lat="43.05757" lon="-0.4637">
        <ele>889.356689</ele>
        <time>2011-05-23T07:36:17Z</time>
      </trkpt>
      <trkpt lat="43.05738" lon="-0.46374">
        <ele>889.837402</ele>
        <time>2011-05-23T07:36:34Z</time>
      </trkpt>
      <trkpt lat="43.05724" lon="-0.46375">
        <ele>889.837402</ele>
        <time>2011-05-23T07:36:46Z</time>
      </trkpt>
      <trkpt lat="43.05714" lon="-0.46375">
        <ele>891.76001</ele>
        <time>2011-05-23T07:36:54Z</time>
      </trkpt>
      <trkpt lat="43.05694" lon="-0.46383">
        <ele>893.682861</ele>
        <time>2011-05-23T07:37:09Z</time>
      </trkpt>
      <trkpt lat="43.05681" lon="-0.46388">
        <ele>894.644043</ele>
        <time>2011-05-23T07:37:22Z</time>
      </trkpt>
      <trkpt lat="43.05672" lon="-0.46392">
        <ele>895.124756</ele>
        <time>2011-05-23T07:37:30Z</time>
      </trkpt>
      <trkpt lat="43.05669" lon="-0.46394">
        <ele>896.086182</ele>
        <time>2011-05-23T07:37:33Z</time>
      </trkpt>
      <trkpt lat="43.05648" lon="-0.46407">
        <ele>898.489258</ele>
        <time>2011-05-23T07:37:50Z</time>
      </trkpt>
      <trkpt lat="43.05626" lon="-0.46424">
        <ele>899.931396</ele>
        <time>2011-05-23T07:38:11Z</time>
      </trkpt>
      <trkpt lat="43.05622" lon="-0.46427">
        <ele>900.412109</ele>
        <time>2011-05-23T07:38:15Z</time>
      </trkpt>
      <trkpt lat="43.05607" lon="-0.46443">
        <ele>901.373291</ele>
        <time>2011-05-23T07:38:31Z</time>
      </trkpt>
      <trkpt lat="43.05591" lon="-0.46456">
        <ele>902.815186</ele>
        <time>2011-05-23T07:38:47Z</time>
      </trkpt>
      <trkpt lat="43.05576" lon="-0.46468">
        <ele>902.815186</ele>
        <time>2011-05-23T07:39:02Z</time>
      </trkpt>
      <trkpt lat="43.05561" lon="-0.46476">
        <ele>903.295898</ele>
        <time>2011-05-23T07:39:16Z</time>
      </trkpt>
      <trkpt lat="43.05544" lon="-0.46481">
        <ele>904.737793</ele>
        <time>2011-05-23T07:39:30Z</time>
      </trkpt>
      <trkpt lat="43.05521" lon="-0.46485">
        <ele>904.737793</ele>
        <time>2011-05-23T07:39:47Z</time>
      </trkpt>
      <trkpt lat="43.05495" lon="-0.46494">
        <ele>908.102783</ele>
        <time>2011-05-23T07:40:07Z</time>
      </trkpt>
      <trkpt lat="43.05478" lon="-0.46504">
        <ele>910.986572</ele>
        <time>2011-05-23T07:40:22Z</time>
      </trkpt>
      <trkpt lat="43.05473" lon="-0.46507">
        <ele>911.467285</ele>
        <time>2011-05-23T07:40:27Z</time>
      </trkpt>
      <trkpt lat="43.05453" lon="-0.46523">
        <ele>913.870361</ele>
        <time>2011-05-23T07:40:45Z</time>
      </trkpt>
      <trkpt lat="43.05438" lon="-0.46535">
        <ele>915.3125</ele>
        <time>2011-05-23T07:40:59Z</time>
      </trkpt>
      <trkpt lat="43.0542" lon="-0.46549">
        <ele>915.793213</ele>
        <time>2011-05-23T07:41:13Z</time>
      </trkpt>
      <trkpt lat="43.0541" lon="-0.46552">
        <ele>916.273682</ele>
        <time>2011-05-23T07:41:22Z</time>
      </trkpt>
      <trkpt lat="43.05406" lon="-0.46553">
        <ele>916.754395</ele>
        <time>2011-05-23T07:41:25Z</time>
      </trkpt>
      <trkpt lat="43.05399" lon="-0.46554">
        <ele>916.754395</ele>
        <time>2011-05-23T07:41:31Z</time>
      </trkpt>
      <trkpt lat="43.05379" lon="-0.46555">
        <ele>917.715576</ele>
        <time>2011-05-23T07:41:46Z</time>
      </trkpt>
      <trkpt lat="43.05372" lon="-0.46553">
        <ele>917.715576</ele>
        <time>2011-05-23T07:41:51Z</time>
      </trkpt>
      <trkpt lat="43.0535" lon="-0.46551">
        <ele>919.157715</ele>
        <time>2011-05-23T07:42:08Z</time>
      </trkpt>
      <trkpt lat="43.05323" lon="-0.46546">
        <ele>920.599609</ele>
        <time>2011-05-23T07:42:29Z</time>
      </trkpt>
      <trkpt lat="43.053" lon="-0.46543">
        <ele>921.560791</ele>
        <time>2011-05-23T07:42:47Z</time>
      </trkpt>
      <trkpt lat="43.05277" lon="-0.46537">
        <ele>924.925781</ele>
        <time>2011-05-23T07:43:06Z</time>
      </trkpt>
      <trkpt lat="43.05273" lon="-0.46538">
        <ele>924.925781</ele>
        <time>2011-05-23T07:43:09Z</time>
      </trkpt>
      <trkpt lat="43.05252" lon="-0.46531">
        <ele>927.329102</ele>
        <time>2011-05-23T07:43:28Z</time>
      </trkpt>
      <trkpt lat="43.0524" lon="-0.46529">
        <ele>929.251465</ele>
        <time>2011-05-23T07:43:38Z</time>
      </trkpt>
      <trkpt lat="43.05235" lon="-0.46528">
        <ele>930.212891</ele>
        <time>2011-05-23T07:43:42Z</time>
      </trkpt>
      <trkpt lat="43.05226" lon="-0.46526">
        <ele>931.654785</ele>
        <time>2011-05-23T07:43:50Z</time>
      </trkpt>
      <trkpt lat="43.05213" lon="-0.46523">
        <ele>934.058105</ele>
        <time>2011-05-23T07:44:03Z</time>
      </trkpt>
      <trkpt lat="43.05198" lon="-0.46515">
        <ele>935.980713</ele>
        <time>2011-05-23T07:44:19Z</time>
      </trkpt>
      <trkpt lat="43.05196" lon="-0.46515">
        <ele>935.980713</ele>
        <time>2011-05-23T07:44:21Z</time>
      </trkpt>
      <trkpt lat="43.0518" lon="-0.46514">
        <ele>939.345215</ele>
        <time>2011-05-23T07:44:34Z</time>
      </trkpt>
      <trkpt lat="43.05169" lon="-0.4651">
        <ele>940.306885</ele>
        <time>2011-05-23T07:44:50Z</time>
      </trkpt>
      <trkpt lat="43.05169" lon="-0.46508">
        <ele>940.787354</ele>
        <time>2011-05-23T07:45:06Z</time>
      </trkpt>
      <trkpt lat="43.0516" lon="-0.46504">
        <ele>942.710205</ele>
        <time>2011-05-23T07:45:21Z</time>
      </trkpt>
      <trkpt lat="43.0515" lon="-0.46499">
        <ele>946.074707</ele>
        <time>2011-05-23T07:45:37Z</time>
      </trkpt>
      <trkpt lat="43.05139" lon="-0.46501">
        <ele>947.997314</ele>
        <time>2011-05-23T07:45:51Z</time>
      </trkpt>
      <trkpt lat="43.05135" lon="-0.46505">
        <ele>951.361816</ele>
        <time>2011-05-23T07:46:01Z</time>
      </trkpt>
      <trkpt lat="43.05128" lon="-0.4651">
        <ele>953.284424</ele>
        <time>2011-05-23T07:46:16Z</time>
      </trkpt>
      <trkpt lat="43.05125" lon="-0.4651">
        <ele>955.207031</ele>
        <time>2011-05-23T07:46:20Z</time>
      </trkpt>
      <trkpt lat="43.05112" lon="-0.46505">
        <ele>958.091309</ele>
        <time>2011-05-23T07:46:34Z</time>
      </trkpt>
      <trkpt lat="43.05099" lon="-0.46496">
        <ele>960.494385</ele>
        <time>2011-05-23T07:46:51Z</time>
      </trkpt>
      <trkpt lat="43.05089" lon="-0.46494">
        <ele>963.858887</ele>
        <time>2011-05-23T07:47:04Z</time>
      </trkpt>
      <trkpt lat="43.05078" lon="-0.46492">
        <ele>966.74292</ele>
        <time>2011-05-23T07:47:16Z</time>
      </trkpt>
      <trkpt lat="43.05073" lon="-0.46486">
        <ele>969.626953</ele>
        <time>2011-05-23T07:47:27Z</time>
      </trkpt>
      <trkpt lat="43.0507" lon="-0.46473">
        <ele>972.991699</ele>
        <time>2011-05-23T07:47:43Z</time>
      </trkpt>
      <trkpt lat="43.05064" lon="-0.46463">
        <ele>975.875488</ele>
        <time>2011-05-23T07:47:56Z</time>
      </trkpt>
      <trkpt lat="43.05057" lon="-0.46455">
        <ele>978.278809</ele>
        <time>2011-05-23T07:48:07Z</time>
      </trkpt>
      <trkpt lat="43.05048" lon="-0.4645">
        <ele>981.643311</ele>
        <time>2011-05-23T07:48:20Z</time>
      </trkpt>
      <trkpt lat="43.05035" lon="-0.46446">
        <ele>983.565918</ele>
        <time>2011-05-23T07:48:33Z</time>
      </trkpt>
      <trkpt lat="43.05035" lon="-0.46458">
        <ele>984.046631</ele>
        <time>2011-05-23T07:48:42Z</time>
      </trkpt>
      <trkpt lat="43.05034" lon="-0.46469">
        <ele>985.488525</ele>
        <time>2011-05-23T07:48:49Z</time>
      </trkpt>
      <trkpt lat="43.05033" lon="-0.46484">
        <ele>987.891846</ele>
        <time>2011-05-23T07:49:02Z</time>
      </trkpt>
      <trkpt lat="43.05032" lon="-0.46489">
        <ele>988.372803</ele>
        <time>2011-05-23T07:49:06Z</time>
      </trkpt>
      <trkpt lat="43.05027" lon="-0.46503">
        <ele>990.775879</ele>
        <time>2011-05-23T07:49:19Z</time>
      </trkpt>
      <trkpt lat="43.05026" lon="-0.46516">
        <ele>991.737305</ele>
        <time>2011-05-23T07:49:30Z</time>
      </trkpt>
      <trkpt lat="43.05024" lon="-0.46523">
        <ele>994.140625</ele>
        <time>2011-05-23T07:49:37Z</time>
      </trkpt>
      <trkpt lat="43.05022" lon="-0.46536">
        <ele>996.543945</ele>
        <time>2011-05-23T07:49:48Z</time>
      </trkpt>
      <trkpt lat="43.05017" lon="-0.46548">
        <ele>998.947021</ele>
        <time>2011-05-23T07:49:59Z</time>
      </trkpt>
      <trkpt lat="43.0501" lon="-0.46563">
        <ele>1000.869629</ele>
        <time>2011-05-23T07:50:13Z</time>
      </trkpt>
      <trkpt lat="43.05002" lon="-0.46572">
        <ele>1002.311523</ele>
        <time>2011-05-23T07:50:24Z</time>
      </trkpt>
      <trkpt lat="43.04999" lon="-0.46575">
        <ele>1003.272949</ele>
        <time>2011-05-23T07:50:28Z</time>
      </trkpt>
      <trkpt lat="43.0499" lon="-0.46587">
        <ele>1005.676514</ele>
        <time>2011-05-23T07:50:41Z</time>
      </trkpt>
      <trkpt lat="43.04987" lon="-0.46597">
        <ele>1009.041016</ele>
        <time>2011-05-23T07:50:52Z</time>
      </trkpt>
      <trkpt lat="43.04988" lon="-0.46613">
        <ele>1011.444336</ele>
        <time>2011-05-23T07:51:09Z</time>
      </trkpt>
      <trkpt lat="43.04989" lon="-0.46629">
        <ele>1013.366943</ele>
        <time>2011-05-23T07:51:24Z</time>
      </trkpt>
      <trkpt lat="43.04987" lon="-0.46642">
        <ele>1014.808838</ele>
        <time>2011-05-23T07:51:36Z</time>
      </trkpt>
      <trkpt lat="43.04985" lon="-0.46656">
        <ele>1016.250732</ele>
        <time>2011-05-23T07:51:50Z</time>
      </trkpt>
      <trkpt lat="43.04979" lon="-0.46664">
        <ele>1017.692627</ele>
        <time>2011-05-23T07:51:59Z</time>
      </trkpt>
      <trkpt lat="43.04968" lon="-0.46674">
        <ele>1019.134766</ele>
        <time>2011-05-23T07:52:11Z</time>
      </trkpt>
      <trkpt lat="43.04955" lon="-0.46681">
        <ele>1020.576904</ele>
        <time>2011-05-23T07:52:23Z</time>
      </trkpt>
      <trkpt lat="43.04942" lon="-0.46685">
        <ele>1021.057617</ele>
        <time>2011-05-23T07:52:36Z</time>
      </trkpt>
      <trkpt lat="43.04934" lon="-0.46693">
        <ele>1022.018799</ele>
        <time>2011-05-23T07:52:50Z</time>
      </trkpt>
      <trkpt lat="43.0493" lon="-0.46696">
        <ele>1022.499512</ele>
        <time>2011-05-23T07:53:37Z</time>
      </trkpt>
      <trkpt lat="43.04931" lon="-0.4669">
        <ele>1022.018799</ele>
        <time>2011-05-23T07:54:03Z</time>
      </trkpt>
      <trkpt lat="43.04929" lon="-0.46691">
        <ele>1023.941406</ele>
        <time>2011-05-23T07:54:52Z</time>
      </trkpt>
      <trkpt lat="43.04926" lon="-0.46693">
        <ele>1023.941406</ele>
        <time>2011-05-23T07:55:09Z</time>
      </trkpt>
      <trkpt lat="43.04925" lon="-0.46694">
        <ele>1023.941406</ele>
        <time>2011-05-23T07:55:10Z</time>
      </trkpt>
      <trkpt lat="43.04918" lon="-0.46702">
        <ele>1024.902832</ele>
        <time>2011-05-23T07:55:22Z</time>
      </trkpt>
      <trkpt lat="43.04902" lon="-0.4671">
        <ele>1026.344727</ele>
        <time>2011-05-23T07:55:39Z</time>
      </trkpt>
      <trkpt lat="43.04888" lon="-0.46724">
        <ele>1027.786621</ele>
        <time>2011-05-23T07:55:53Z</time>
      </trkpt>
      <trkpt lat="43.04876" lon="-0.46738">
        <ele>1029.709229</ele>
        <time>2011-05-23T07:56:06Z</time>
      </trkpt>
      <trkpt lat="43.04868" lon="-0.46749">
        <ele>1031.151367</ele>
        <time>2011-05-23T07:56:17Z</time>
      </trkpt>
      <trkpt lat="43.04857" lon="-0.46757">
        <ele>1032.593262</ele>
        <time>2011-05-23T07:56:29Z</time>
      </trkpt>
      <trkpt lat="43.04842" lon="-0.46766">
        <ele>1034.996582</ele>
        <time>2011-05-23T07:56:42Z</time>
      </trkpt>
      <trkpt lat="43.04832" lon="-0.46772">
        <ele>1035.477051</ele>
        <time>2011-05-23T07:56:52Z</time>
      </trkpt>
      <trkpt lat="43.04823" lon="-0.4678">
        <ele>1036.919189</ele>
        <time>2011-05-23T07:57:01Z</time>
      </trkpt>
      <trkpt lat="43.04813" lon="-0.46781">
        <ele>1038.361328</ele>
        <time>2011-05-23T07:57:11Z</time>
      </trkpt>
      <trkpt lat="43.04795" lon="-0.46787">
        <ele>1039.803223</ele>
        <time>2011-05-23T07:57:26Z</time>
      </trkpt>
      <trkpt lat="43.0479" lon="-0.46789">
        <ele>1041.245117</ele>
        <time>2011-05-23T07:57:29Z</time>
      </trkpt>
      <trkpt lat="43.04778" lon="-0.4679">
        <ele>1042.206543</ele>
        <time>2011-05-23T07:57:40Z</time>
      </trkpt>
      <trkpt lat="43.04766" lon="-0.46786">
        <ele>1044.12915</ele>
        <time>2011-05-23T07:57:50Z</time>
      </trkpt>
      <trkpt lat="43.04755" lon="-0.46789">
        <ele>1046.532471</ele>
        <time>2011-05-23T07:58:06Z</time>
      </trkpt>
      <trkpt lat="43.04746" lon="-0.46784">
        <ele>1048.454834</ele>
        <time>2011-05-23T07:58:19Z</time>
      </trkpt>
      <trkpt lat="43.04735" lon="-0.46772">
        <ele>1050.858154</ele>
        <time>2011-05-23T07:58:31Z</time>
      </trkpt>
      <trkpt lat="43.0473" lon="-0.46769">
        <ele>1053.742432</ele>
        <time>2011-05-23T07:58:40Z</time>
      </trkpt>
      <trkpt lat="43.04722" lon="-0.46766">
        <ele>1055.184326</ele>
        <time>2011-05-23T07:58:53Z</time>
      </trkpt>
      <trkpt lat="43.04712" lon="-0.46763">
        <ele>1057.587646</ele>
        <time>2011-05-23T07:59:07Z</time>
      </trkpt>
      <trkpt lat="43.04703" lon="-0.46755">
        <ele>1059.029541</ele>
        <time>2011-05-23T07:59:19Z</time>
      </trkpt>
      <trkpt lat="43.04693" lon="-0.46753">
        <ele>1061.432861</ele>
        <time>2011-05-23T07:59:35Z</time>
      </trkpt>
      <trkpt lat="43.04684" lon="-0.46752">
        <ele>1064.31665</ele>
        <time>2011-05-23T07:59:49Z</time>
      </trkpt>
      <trkpt lat="43.04678" lon="-0.46751">
        <ele>1066.239258</ele>
        <time>2011-05-23T07:59:58Z</time>
      </trkpt>
      <trkpt lat="43.04667" lon="-0.46747">
        <ele>1068.642822</ele>
        <time>2011-05-23T08:00:12Z</time>
      </trkpt>
      <trkpt lat="43.04653" lon="-0.46742">
        <ele>1070.56543</ele>
        <time>2011-05-23T08:00:28Z</time>
      </trkpt>
      <trkpt lat="43.04636" lon="-0.46748">
        <ele>1072.96875</ele>
        <time>2011-05-23T08:00:45Z</time>
      </trkpt>
      <trkpt lat="43.04624" lon="-0.46757">
        <ele>1072.96875</ele>
        <time>2011-05-23T08:00:59Z</time>
      </trkpt>
      <trkpt lat="43.04612" lon="-0.4677">
        <ele>1073.929932</ele>
        <time>2011-05-23T08:01:09Z</time>
      </trkpt>
      <trkpt lat="43.04602" lon="-0.46777">
        <ele>1075.371826</ele>
        <time>2011-05-23T08:01:22Z</time>
      </trkpt>
      <trkpt lat="43.04592" lon="-0.46781">
        <ele>1077.294678</ele>
        <time>2011-05-23T08:01:35Z</time>
      </trkpt>
      <trkpt lat="43.04578" lon="-0.46782">
        <ele>1080.178467</ele>
        <time>2011-05-23T08:01:51Z</time>
      </trkpt>
      <trkpt lat="43.04569" lon="-0.46789">
        <ele>1083.062256</ele>
        <time>2011-05-23T08:02:05Z</time>
      </trkpt>
      <trkpt lat="43.04558" lon="-0.46793">
        <ele>1085.46582</ele>
        <time>2011-05-23T08:02:20Z</time>
      </trkpt>
      <trkpt lat="43.04547" lon="-0.46805">
        <ele>1086.907715</ele>
        <time>2011-05-23T08:02:36Z</time>
      </trkpt>
      <trkpt lat="43.04539" lon="-0.46807">
        <ele>1088.830566</ele>
        <time>2011-05-23T08:02:49Z</time>
      </trkpt>
      <trkpt lat="43.04537" lon="-0.46804">
        <ele>1087.869141</ele>
        <time>2011-05-23T08:03:36Z</time>
      </trkpt>
      <trkpt lat="43.04539" lon="-0.46805">
        <ele>1088.349854</ele>
        <time>2011-05-23T08:04:24Z</time>
      </trkpt>
      <trkpt lat="43.04539" lon="-0.46805">
        <ele>1087.388428</ele>
        <time>2011-05-23T08:04:48Z</time>
      </trkpt>
      <trkpt lat="43.04538" lon="-0.4681">
        <ele>1087.869141</ele>
        <time>2011-05-23T08:05:01Z</time>
      </trkpt>
      <trkpt lat="43.04533" lon="-0.46839">
        <ele>1089.311035</ele>
        <time>2011-05-23T08:05:22Z</time>
      </trkpt>
      <trkpt lat="43.04528" lon="-0.4687">
        <ele>1091.233643</ele>
        <time>2011-05-23T08:05:44Z</time>
      </trkpt>
      <trkpt lat="43.04522" lon="-0.46899">
        <ele>1092.195068</ele>
        <time>2011-05-23T08:06:04Z</time>
      </trkpt>
      <trkpt lat="43.04508" lon="-0.46918">
        <ele>1094.117676</ele>
        <time>2011-05-23T08:06:22Z</time>
      </trkpt>
      <trkpt lat="43.04493" lon="-0.46946">
        <ele>1095.55957</ele>
        <time>2011-05-23T08:06:45Z</time>
      </trkpt>
      <trkpt lat="43.04493" lon="-0.46951">
        <ele>1096.520996</ele>
        <time>2011-05-23T08:06:48Z</time>
      </trkpt>
      <trkpt lat="43.04491" lon="-0.46982">
        <ele>1098.924072</ele>
        <time>2011-05-23T08:07:08Z</time>
      </trkpt>
      <trkpt lat="43.0449" lon="-0.47011">
        <ele>1100.846924</ele>
        <time>2011-05-23T08:07:26Z</time>
      </trkpt>
      <trkpt lat="43.0448" lon="-0.47031">
        <ele>1102.288818</ele>
        <time>2011-05-23T08:07:41Z</time>
      </trkpt>
      <trkpt lat="43.04466" lon="-0.47058">
        <ele>1104.21167</ele>
        <time>2011-05-23T08:08:01Z</time>
      </trkpt>
      <trkpt lat="43.0446" lon="-0.4709">
        <ele>1106.134033</ele>
        <time>2011-05-23T08:08:22Z</time>
      </trkpt>
      <trkpt lat="43.04464" lon="-0.47124">
        <ele>1107.576172</ele>
        <time>2011-05-23T08:08:43Z</time>
      </trkpt>
      <trkpt lat="43.04473" lon="-0.47152">
        <ele>1109.979248</ele>
        <time>2011-05-23T08:09:03Z</time>
      </trkpt>
      <trkpt lat="43.04487" lon="-0.47167">
        <ele>1110.940674</ele>
        <time>2011-05-23T08:09:19Z</time>
      </trkpt>
      <trkpt lat="43.04498" lon="-0.47177">
        <ele>1110.940674</ele>
        <time>2011-05-23T08:09:29Z</time>
      </trkpt>
      <trkpt lat="43.045" lon="-0.4718">
        <ele>1111.421387</ele>
        <time>2011-05-23T08:09:31Z</time>
      </trkpt>
      <trkpt lat="43.04501" lon="-0.47188">
        <ele>1110.940674</ele>
        <time>2011-05-23T08:09:36Z</time>
      </trkpt>
      <trkpt lat="43.04492" lon="-0.47216">
        <ele>1112.382568</ele>
        <time>2011-05-23T08:09:55Z</time>
      </trkpt>
      <trkpt lat="43.04491" lon="-0.47219">
        <ele>1113.343994</ele>
        <time>2011-05-23T08:09:57Z</time>
      </trkpt>
      <trkpt lat="43.04479" lon="-0.47235">
        <ele>1114.785889</ele>
        <time>2011-05-23T08:10:14Z</time>
      </trkpt>
      <trkpt lat="43.04463" lon="-0.47249">
        <ele>1116.228027</ele>
        <time>2011-05-23T08:10:31Z</time>
      </trkpt>
      <trkpt lat="43.04451" lon="-0.47272">
        <ele>1117.669922</ele>
        <time>2011-05-23T08:10:48Z</time>
      </trkpt>
      <trkpt lat="43.04438" lon="-0.47292">
        <ele>1119.112061</ele>
        <time>2011-05-23T08:11:05Z</time>
      </trkpt>
      <trkpt lat="43.04431" lon="-0.4731">
        <ele>1121.034668</ele>
        <time>2011-05-23T08:11:20Z</time>
      </trkpt>
      <trkpt lat="43.04427" lon="-0.47313">
        <ele>1120.073242</ele>
        <time>2011-05-23T08:11:27Z</time>
      </trkpt>
      <trkpt lat="43.04408" lon="-0.47326">
        <ele>1119.592773</ele>
        <time>2011-05-23T08:11:48Z</time>
      </trkpt>
      <trkpt lat="43.044" lon="-0.47336">
        <ele>1122.957275</ele>
        <time>2011-05-23T08:12:02Z</time>
      </trkpt>
      <trkpt lat="43.04389" lon="-0.47348">
        <ele>1126.321777</ele>
        <time>2011-05-23T08:12:19Z</time>
      </trkpt>
      <trkpt lat="43.04387" lon="-0.4735">
        <ele>1125.841064</ele>
        <time>2011-05-23T08:12:23Z</time>
      </trkpt>
      <trkpt lat="43.04383" lon="-0.47351">
        <ele>1126.80249</ele>
        <time>2011-05-23T08:12:27Z</time>
      </trkpt>
      <trkpt lat="43.04371" lon="-0.47334">
        <ele>1126.80249</ele>
        <time>2011-05-23T08:12:44Z</time>
      </trkpt>
      <trkpt lat="43.04371" lon="-0.47325">
        <ele>1127.283203</ele>
        <time>2011-05-23T08:12:58Z</time>
      </trkpt>
      <trkpt lat="43.04366" lon="-0.47328">
        <ele>1127.283203</ele>
        <time>2011-05-23T08:13:20Z</time>
      </trkpt>
      <trkpt lat="43.04366" lon="-0.4733">
        <ele>1126.80249</ele>
        <time>2011-05-23T08:13:22Z</time>
      </trkpt>
      <trkpt lat="43.04364" lon="-0.47355">
        <ele>1129.205566</ele>
        <time>2011-05-23T08:13:41Z</time>
      </trkpt>
      <trkpt lat="43.04365" lon="-0.47357">
        <ele>1129.686279</ele>
        <time>2011-05-23T08:13:43Z</time>
      </trkpt>
      <trkpt lat="43.04369" lon="-0.47367">
        <ele>1129.686279</ele>
        <time>2011-05-23T08:13:51Z</time>
      </trkpt>
      <trkpt lat="43.0437" lon="-0.47385">
        <ele>1134.012451</ele>
        <time>2011-05-23T08:14:06Z</time>
      </trkpt>
      <trkpt lat="43.04378" lon="-0.47398">
        <ele>1135.454346</ele>
        <time>2011-05-23T08:14:20Z</time>
      </trkpt>
      <trkpt lat="43.04378" lon="-0.4741">
        <ele>1139.299561</ele>
        <time>2011-05-23T08:14:34Z</time>
      </trkpt>
      <trkpt lat="43.04376" lon="-0.47417">
        <ele>1140.260986</ele>
        <time>2011-05-23T08:14:45Z</time>
      </trkpt>
      <trkpt lat="43.04366" lon="-0.4742">
        <ele>1141.702881</ele>
        <time>2011-05-23T08:14:56Z</time>
      </trkpt>
      <trkpt lat="43.04362" lon="-0.47432">
        <ele>1143.625488</ele>
        <time>2011-05-23T08:15:05Z</time>
      </trkpt>
      <trkpt lat="43.04363" lon="-0.47438">
        <ele>1145.067383</ele>
        <time>2011-05-23T08:15:10Z</time>
      </trkpt>
      <trkpt lat="43.0436" lon="-0.47451">
        <ele>1147.470703</ele>
        <time>2011-05-23T08:15:24Z</time>
      </trkpt>
      <trkpt lat="43.04365" lon="-0.47467">
        <ele>1150.35498</ele>
        <time>2011-05-23T08:15:43Z</time>
      </trkpt>
      <trkpt lat="43.04371" lon="-0.47476">
        <ele>1153.719482</ele>
        <time>2011-05-23T08:15:56Z</time>
      </trkpt>
      <trkpt lat="43.04373" lon="-0.47479">
        <ele>1155.161377</ele>
        <time>2011-05-23T08:16:01Z</time>
      </trkpt>
      <trkpt lat="43.04377" lon="-0.47488">
        <ele>1158.04541</ele>
        <time>2011-05-23T08:16:17Z</time>
      </trkpt>
      <trkpt lat="43.04382" lon="-0.47496">
        <ele>1160.448486</ele>
        <time>2011-05-23T08:16:33Z</time>
      </trkpt>
      <trkpt lat="43.04383" lon="-0.47504">
        <ele>1161.890625</ele>
        <time>2011-05-23T08:16:46Z</time>
      </trkpt>
      <trkpt lat="43.04383" lon="-0.47505">
        <ele>1162.851807</ele>
        <time>2011-05-23T08:16:48Z</time>
      </trkpt>
      <trkpt lat="43.04384" lon="-0.4751">
        <ele>1164.293945</ele>
        <time>2011-05-23T08:17:05Z</time>
      </trkpt>
      <trkpt lat="43.04381" lon="-0.47514">
        <ele>1167.177979</ele>
        <time>2011-05-23T08:17:16Z</time>
      </trkpt>
      <trkpt lat="43.04379" lon="-0.47518">
        <ele>1170.061768</ele>
        <time>2011-05-23T08:17:29Z</time>
      </trkpt>
      <trkpt lat="43.04376" lon="-0.4753">
        <ele>1173.426514</ele>
        <time>2011-05-23T08:17:47Z</time>
      </trkpt>
      <trkpt lat="43.0438" lon="-0.4754">
        <ele>1174.868408</ele>
        <time>2011-05-23T08:18:00Z</time>
      </trkpt>
      <trkpt lat="43.04379" lon="-0.47553">
        <ele>1178.23291</ele>
        <time>2011-05-23T08:18:13Z</time>
      </trkpt>
      <trkpt lat="43.04378" lon="-0.47571">
        <ele>1180.155762</ele>
        <time>2011-05-23T08:18:32Z</time>
      </trkpt>
      <trkpt lat="43.04378" lon="-0.47591">
        <ele>1182.078369</ele>
        <time>2011-05-23T08:18:51Z</time>
      </trkpt>
      <trkpt lat="43.04384" lon="-0.47604">
        <ele>1185.442871</ele>
        <time>2011-05-23T08:19:06Z</time>
      </trkpt>
      <trkpt lat="43.04394" lon="-0.4762">
        <ele>1186.404297</ele>
        <time>2011-05-23T08:19:21Z</time>
      </trkpt>
      <trkpt lat="43.04394" lon="-0.47624">
        <ele>1188.326904</ele>
        <time>2011-05-23T08:19:25Z</time>
      </trkpt>
      <trkpt lat="43.04391" lon="-0.47633">
        <ele>1190.72998</ele>
        <time>2011-05-23T08:19:37Z</time>
      </trkpt>
      <trkpt lat="43.04384" lon="-0.47651">
        <ele>1192.172119</ele>
        <time>2011-05-23T08:19:54Z</time>
      </trkpt>
      <trkpt lat="43.04391" lon="-0.47667">
        <ele>1193.133301</ele>
        <time>2011-05-23T08:20:07Z</time>
      </trkpt>
      <trkpt lat="43.04393" lon="-0.47673">
        <ele>1192.652832</ele>
        <time>2011-05-23T08:20:12Z</time>
      </trkpt>
      <trkpt lat="43.04393" lon="-0.47693">
        <ele>1194.575195</ele>
        <time>2011-05-23T08:20:30Z</time>
      </trkpt>
      <trkpt lat="43.04396" lon="-0.4771">
        <ele>1197.940186</ele>
        <time>2011-05-23T08:20:44Z</time>
      </trkpt>
      <trkpt lat="43.04396" lon="-0.47711">
        <ele>1197.940186</ele>
        <time>2011-05-23T08:20:45Z</time>
      </trkpt>
      <trkpt lat="43.04399" lon="-0.47736">
        <ele>1200.823975</ele>
        <time>2011-05-23T08:21:05Z</time>
      </trkpt>
      <trkpt lat="43.044" lon="-0.47739">
        <ele>1201.304688</ele>
        <time>2011-05-23T08:21:08Z</time>
      </trkpt>
      <trkpt lat="43.04402" lon="-0.47762">
        <ele>1204.669189</ele>
        <time>2011-05-23T08:21:29Z</time>
      </trkpt>
      <trkpt lat="43.04403" lon="-0.47766">
        <ele>1205.630615</ele>
        <time>2011-05-23T08:21:33Z</time>
      </trkpt>
      <trkpt lat="43.04403" lon="-0.47782">
        <ele>1208.033936</ele>
        <time>2011-05-23T08:21:50Z</time>
      </trkpt>
      <trkpt lat="43.04406" lon="-0.47794">
        <ele>1208.995117</ele>
        <time>2011-05-23T08:22:03Z</time>
      </trkpt>
      <trkpt lat="43.04411" lon="-0.47814">
        <ele>1211.87915</ele>
        <time>2011-05-23T08:22:20Z</time>
      </trkpt>
      <trkpt lat="43.04415" lon="-0.47836">
        <ele>1213.801758</ele>
        <time>2011-05-23T08:22:40Z</time>
      </trkpt>
      <trkpt lat="43.04416" lon="-0.47857">
        <ele>1216.205078</ele>
        <time>2011-05-23T08:22:57Z</time>
      </trkpt>
      <trkpt lat="43.04419" lon="-0.47884">
        <ele>1217.646973</ele>
        <time>2011-05-23T08:23:19Z</time>
      </trkpt>
      <trkpt lat="43.04424" lon="-0.47898">
        <ele>1220.531006</ele>
        <time>2011-05-23T08:23:34Z</time>
      </trkpt>
      <trkpt lat="43.04431" lon="-0.47915">
        <ele>1222.453613</ele>
        <time>2011-05-23T08:23:52Z</time>
      </trkpt>
      <trkpt lat="43.04431" lon="-0.4792">
        <ele>1222.453613</ele>
        <time>2011-05-23T08:23:57Z</time>
      </trkpt>
      <trkpt lat="43.04429" lon="-0.47926">
        <ele>1224.376221</ele>
        <time>2011-05-23T08:24:02Z</time>
      </trkpt>
      <trkpt lat="43.04436" lon="-0.47946">
        <ele>1226.298828</ele>
        <time>2011-05-23T08:24:19Z</time>
      </trkpt>
      <trkpt lat="43.04444" lon="-0.47962">
        <ele>1227.260254</ele>
        <time>2011-05-23T08:24:36Z</time>
      </trkpt>
      <trkpt lat="43.04444" lon="-0.47973">
        <ele>1227.260254</ele>
        <time>2011-05-23T08:25:05Z</time>
      </trkpt>
      <trkpt lat="43.04447" lon="-0.47993">
        <ele>1227.740723</ele>
        <time>2011-05-23T08:25:22Z</time>
      </trkpt>
      <trkpt lat="43.04446" lon="-0.48013">
        <ele>1228.702393</ele>
        <time>2011-05-23T08:25:41Z</time>
      </trkpt>
      <trkpt lat="43.04439" lon="-0.48035">
        <ele>1231.105713</ele>
        <time>2011-05-23T08:25:59Z</time>
      </trkpt>
      <trkpt lat="43.04433" lon="-0.48057">
        <ele>1233.989502</ele>
        <time>2011-05-23T08:26:18Z</time>
      </trkpt>
      <trkpt lat="43.04425" lon="-0.48073">
        <ele>1235.912109</ele>
        <time>2011-05-23T08:26:36Z</time>
      </trkpt>
      <trkpt lat="43.04417" lon="-0.48088">
        <ele>1237.834717</ele>
        <time>2011-05-23T08:26:53Z</time>
      </trkpt>
      <trkpt lat="43.04415" lon="-0.48093">
        <ele>1239.757324</ele>
        <time>2011-05-23T08:26:58Z</time>
      </trkpt>
      <trkpt lat="43.04409" lon="-0.48109">
        <ele>1242.160645</ele>
        <time>2011-05-23T08:27:15Z</time>
      </trkpt>
      <trkpt lat="43.04403" lon="-0.48121">
        <ele>1245.525391</ele>
        <time>2011-05-23T08:27:31Z</time>
      </trkpt>
      <trkpt lat="43.04397" lon="-0.48131">
        <ele>1247.928711</ele>
        <time>2011-05-23T08:27:47Z</time>
      </trkpt>
      <trkpt lat="43.04401" lon="-0.48138">
        <ele>1249.370605</ele>
        <time>2011-05-23T08:27:55Z</time>
      </trkpt>
      <trkpt lat="43.04405" lon="-0.48138">
        <ele>1250.332031</ele>
        <time>2011-05-23T08:27:59Z</time>
      </trkpt>
      <trkpt lat="43.04427" lon="-0.48124">
        <ele>1252.254395</ele>
        <time>2011-05-23T08:28:21Z</time>
      </trkpt>
      <trkpt lat="43.04444" lon="-0.48109">
        <ele>1254.657715</ele>
        <time>2011-05-23T08:28:41Z</time>
      </trkpt>
      <trkpt lat="43.04461" lon="-0.48096">
        <ele>1256.580322</ele>
        <time>2011-05-23T08:29:00Z</time>
      </trkpt>
      <trkpt lat="43.04478" lon="-0.48088">
        <ele>1258.50293</ele>
        <time>2011-05-23T08:29:16Z</time>
      </trkpt>
      <trkpt lat="43.04501" lon="-0.48078">
        <ele>1258.50293</ele>
        <time>2011-05-23T08:29:38Z</time>
      </trkpt>
      <trkpt lat="43.04518" lon="-0.4807">
        <ele>1261.86792</ele>
        <time>2011-05-23T08:29:55Z</time>
      </trkpt>
      <trkpt lat="43.04524" lon="-0.48077">
        <ele>1262.829102</ele>
        <time>2011-05-23T08:30:03Z</time>
      </trkpt>
      <trkpt lat="43.04524" lon="-0.48081">
        <ele>1263.309814</ele>
        <time>2011-05-23T08:30:06Z</time>
      </trkpt>
      <trkpt lat="43.0451" lon="-0.48108">
        <ele>1265.713135</ele>
        <time>2011-05-23T08:30:30Z</time>
      </trkpt>
      <trkpt lat="43.04491" lon="-0.48121">
        <ele>1265.713135</ele>
        <time>2011-05-23T08:30:49Z</time>
      </trkpt>
      <trkpt lat="43.0449" lon="-0.48121">
        <ele>1266.193604</ele>
        <time>2011-05-23T08:30:50Z</time>
      </trkpt>
      <trkpt lat="43.04478" lon="-0.48143">
        <ele>1268.596924</ele>
        <time>2011-05-23T08:31:10Z</time>
      </trkpt>
      <trkpt lat="43.04485" lon="-0.48151">
        <ele>1270.038818</ele>
        <time>2011-05-23T08:31:21Z</time>
      </trkpt>
      <trkpt lat="43.04503" lon="-0.48157">
        <ele>1272.442139</ele>
        <time>2011-05-23T08:31:40Z</time>
      </trkpt>
      <trkpt lat="43.04504" lon="-0.48157">
        <ele>1272.922852</ele>
        <time>2011-05-23T08:31:44Z</time>
      </trkpt>
      <trkpt lat="43.04508" lon="-0.48172">
        <ele>1275.806641</ele>
        <time>2011-05-23T08:31:56Z</time>
      </trkpt>
      <trkpt lat="43.04507" lon="-0.48184">
        <ele>1277.249023</ele>
        <time>2011-05-23T08:32:07Z</time>
      </trkpt>
      <trkpt lat="43.04502" lon="-0.48203">
        <ele>1279.171387</ele>
        <time>2011-05-23T08:32:27Z</time>
      </trkpt>
      <trkpt lat="43.04495" lon="-0.48221">
        <ele>1279.6521</ele>
        <time>2011-05-23T08:32:43Z</time>
      </trkpt>
      <trkpt lat="43.04491" lon="-0.48227">
        <ele>1280.613525</ele>
        <time>2011-05-23T08:32:49Z</time>
      </trkpt>
      <trkpt lat="43.04486" lon="-0.48247">
        <ele>1283.016602</ele>
        <time>2011-05-23T08:33:04Z</time>
      </trkpt>
      <trkpt lat="43.04489" lon="-0.48255">
        <ele>1283.978027</ele>
        <time>2011-05-23T08:33:12Z</time>
      </trkpt>
      <trkpt lat="43.04502" lon="-0.48265">
        <ele>1286.861816</ele>
        <time>2011-05-23T08:33:27Z</time>
      </trkpt>
      <trkpt lat="43.04504" lon="-0.4827">
        <ele>1286.861816</ele>
        <time>2011-05-23T08:33:31Z</time>
      </trkpt>
      <trkpt lat="43.04501" lon="-0.48293">
        <ele>1288.784668</ele>
        <time>2011-05-23T08:33:49Z</time>
      </trkpt>
      <trkpt lat="43.04495" lon="-0.48317">
        <ele>1291.668457</ele>
        <time>2011-05-23T08:34:07Z</time>
      </trkpt>
      <trkpt lat="43.04488" lon="-0.48343">
        <ele>1293.591309</ele>
        <time>2011-05-23T08:34:27Z</time>
      </trkpt>
      <trkpt lat="43.04482" lon="-0.48359">
        <ele>1295.033203</ele>
        <time>2011-05-23T08:34:39Z</time>
      </trkpt>
      <trkpt lat="43.04474" lon="-0.48385">
        <ele>1296.955811</ele>
        <time>2011-05-23T08:34:58Z</time>
      </trkpt>
      <trkpt lat="43.04473" lon="-0.48411">
        <ele>1298.397705</ele>
        <time>2011-05-23T08:35:15Z</time>
      </trkpt>
      <trkpt lat="43.04473" lon="-0.48442">
        <ele>1300.320557</ele>
        <time>2011-05-23T08:35:36Z</time>
      </trkpt>
      <trkpt lat="43.04475" lon="-0.48466">
        <ele>1301.281738</ele>
        <time>2011-05-23T08:35:53Z</time>
      </trkpt>
      <trkpt lat="43.04477" lon="-0.48483">
        <ele>1303.685059</ele>
        <time>2011-05-23T08:36:06Z</time>
      </trkpt>
      <trkpt lat="43.04473" lon="-0.48501">
        <ele>1306.568848</ele>
        <time>2011-05-23T08:36:20Z</time>
      </trkpt>
      <trkpt lat="43.04467" lon="-0.48528">
        <ele>1308.491699</ele>
        <time>2011-05-23T08:36:38Z</time>
      </trkpt>
      <trkpt lat="43.04459" lon="-0.48557">
        <ele>1309.453125</ele>
        <time>2011-05-23T08:36:58Z</time>
      </trkpt>
      <trkpt lat="43.04453" lon="-0.4858">
        <ele>1309.453125</ele>
        <time>2011-05-23T08:37:13Z</time>
      </trkpt>
      <trkpt lat="43.04444" lon="-0.48604">
        <ele>1309.933594</ele>
        <time>2011-05-23T08:37:30Z</time>
      </trkpt>
      <trkpt lat="43.04439" lon="-0.48618">
        <ele>1311.375732</ele>
        <time>2011-05-23T08:37:41Z</time>
      </trkpt>
      <trkpt lat="43.04445" lon="-0.48645">
        <ele>1313.778809</ele>
        <time>2011-05-23T08:38:01Z</time>
      </trkpt>
      <trkpt lat="43.04449" lon="-0.48667">
        <ele>1316.182129</ele>
        <time>2011-05-23T08:38:18Z</time>
      </trkpt>
      <trkpt lat="43.04448" lon="-0.48688">
        <ele>1318.104736</ele>
        <time>2011-05-23T08:38:34Z</time>
      </trkpt>
      <trkpt lat="43.04442" lon="-0.48712">
        <ele>1320.98877</ele>
        <time>2011-05-23T08:38:56Z</time>
      </trkpt>
      <trkpt lat="43.04438" lon="-0.48738">
        <ele>1323.872559</ele>
        <time>2011-05-23T08:39:15Z</time>
      </trkpt>
      <trkpt lat="43.04429" lon="-0.48762">
        <ele>1325.79541</ele>
        <time>2011-05-23T08:39:35Z</time>
      </trkpt>
      <trkpt lat="43.0442" lon="-0.4878">
        <ele>1326.276123</ele>
        <time>2011-05-23T08:39:53Z</time>
      </trkpt>
      <trkpt lat="43.04418" lon="-0.48791">
        <ele>1329.640625</ele>
        <time>2011-05-23T08:40:04Z</time>
      </trkpt>
      <trkpt lat="43.04417" lon="-0.48804">
        <ele>1331.082764</ele>
        <time>2011-05-23T08:40:24Z</time>
      </trkpt>
      <trkpt lat="43.04412" lon="-0.48822">
        <ele>1333.48584</ele>
        <time>2011-05-23T08:40:44Z</time>
      </trkpt>
      <trkpt lat="43.04412" lon="-0.48826">
        <ele>1333.48584</ele>
        <time>2011-05-23T08:41:10Z</time>
      </trkpt>
      <trkpt lat="43.04412" lon="-0.48828">
        <ele>1333.005127</ele>
        <time>2011-05-23T08:41:18Z</time>
      </trkpt>
      <trkpt lat="43.04411" lon="-0.48859">
        <ele>1332.043945</ele>
        <time>2011-05-23T08:41:41Z</time>
      </trkpt>
      <trkpt lat="43.04414" lon="-0.48881">
        <ele>1333.005127</ele>
        <time>2011-05-23T08:41:58Z</time>
      </trkpt>
      <trkpt lat="43.04413" lon="-0.48906">
        <ele>1335.408447</ele>
        <time>2011-05-23T08:42:18Z</time>
      </trkpt>
      <trkpt lat="43.04414" lon="-0.48924">
        <ele>1337.331055</ele>
        <time>2011-05-23T08:42:37Z</time>
      </trkpt>
      <trkpt lat="43.04414" lon="-0.48931">
        <ele>1339.253662</ele>
        <time>2011-05-23T08:42:44Z</time>
      </trkpt>
      <trkpt lat="43.04414" lon="-0.48943">
        <ele>1342.618652</ele>
        <time>2011-05-23T08:42:59Z</time>
      </trkpt>
      <trkpt lat="43.04421" lon="-0.48956">
        <ele>1345.502441</ele>
        <time>2011-05-23T08:43:16Z</time>
      </trkpt>
      <trkpt lat="43.04424" lon="-0.48967">
        <ele>1348.38623</ele>
        <time>2011-05-23T08:43:29Z</time>
      </trkpt>
      <trkpt lat="43.04421" lon="-0.48977">
        <ele>1350.309082</ele>
        <time>2011-05-23T08:43:45Z</time>
      </trkpt>
      <trkpt lat="43.0442" lon="-0.48987">
        <ele>1351.270264</ele>
        <time>2011-05-23T08:44:02Z</time>
      </trkpt>
      <trkpt lat="43.04419" lon="-0.49007">
        <ele>1352.712158</ele>
        <time>2011-05-23T08:44:20Z</time>
      </trkpt>
      <trkpt lat="43.04416" lon="-0.49027">
        <ele>1353.673584</ele>
        <time>2011-05-23T08:44:37Z</time>
      </trkpt>
      <trkpt lat="43.04413" lon="-0.49037">
        <ele>1356.076904</ele>
        <time>2011-05-23T08:44:47Z</time>
      </trkpt>
      <trkpt lat="43.04414" lon="-0.49047">
        <ele>1357.999756</ele>
        <time>2011-05-23T08:45:05Z</time>
      </trkpt>
      <trkpt lat="43.04418" lon="-0.49043">
        <ele>1357.999756</ele>
        <time>2011-05-23T08:45:11Z</time>
      </trkpt>
      <trkpt lat="43.04432" lon="-0.49032">
        <ele>1360.883545</ele>
        <time>2011-05-23T08:45:30Z</time>
      </trkpt>
      <trkpt lat="43.04444" lon="-0.49023">
        <ele>1360.883545</ele>
        <time>2011-05-23T08:45:47Z</time>
      </trkpt>
      <trkpt lat="43.04446" lon="-0.49021">
        <ele>1362.325439</ele>
        <time>2011-05-23T08:45:50Z</time>
      </trkpt>
      <trkpt lat="43.04455" lon="-0.49015">
        <ele>1365.690186</ele>
        <time>2011-05-23T08:46:07Z</time>
      </trkpt>
      <trkpt lat="43.04463" lon="-0.49012">
        <ele>1368.573975</ele>
        <time>2011-05-23T08:46:21Z</time>
      </trkpt>
      <trkpt lat="43.0447" lon="-0.49009">
        <ele>1370.496582</ele>
        <time>2011-05-23T08:46:35Z</time>
      </trkpt>
      <trkpt lat="43.04471" lon="-0.49009">
        <ele>1372.419434</ele>
        <time>2011-05-23T08:46:38Z</time>
      </trkpt>
      <trkpt lat="43.04474" lon="-0.49011">
        <ele>1374.342041</ele>
        <time>2011-05-23T08:46:52Z</time>
      </trkpt>
      <trkpt lat="43.04477" lon="-0.49014">
        <ele>1375.303223</ele>
        <time>2011-05-23T08:47:04Z</time>
      </trkpt>
      <trkpt lat="43.04477" lon="-0.49018">
        <ele>1376.745361</ele>
        <time>2011-05-23T08:47:09Z</time>
      </trkpt>
      <trkpt lat="43.04476" lon="-0.49032">
        <ele>1380.109863</ele>
        <time>2011-05-23T08:47:27Z</time>
      </trkpt>
      <trkpt lat="43.04476" lon="-0.49033">
        <ele>1380.109863</ele>
        <time>2011-05-23T08:47:28Z</time>
      </trkpt>
      <trkpt lat="43.04474" lon="-0.49042">
        <ele>1383.474365</ele>
        <time>2011-05-23T08:47:40Z</time>
      </trkpt>
      <trkpt lat="43.04471" lon="-0.49055">
        <ele>1386.358398</ele>
        <time>2011-05-23T08:47:58Z</time>
      </trkpt>
      <trkpt lat="43.0447" lon="-0.49065">
        <ele>1389.723145</ele>
        <time>2011-05-23T08:48:13Z</time>
      </trkpt>
      <trkpt lat="43.04467" lon="-0.49078">
        <ele>1393.087646</ele>
        <time>2011-05-23T08:48:30Z</time>
      </trkpt>
      <trkpt lat="43.04467" lon="-0.49086">
        <ele>1395.010254</ele>
        <time>2011-05-23T08:48:48Z</time>
      </trkpt>
      <trkpt lat="43.04467" lon="-0.49096">
        <ele>1397.894287</ele>
        <time>2011-05-23T08:49:04Z</time>
      </trkpt>
      <trkpt lat="43.04464" lon="-0.49104">
        <ele>1400.297607</ele>
        <time>2011-05-23T08:49:22Z</time>
      </trkpt>
      <trkpt lat="43.04461" lon="-0.49107">
        <ele>1401.258789</ele>
        <time>2011-05-23T08:49:37Z</time>
      </trkpt>
      <trkpt lat="43.04458" lon="-0.49112">
        <ele>1403.662109</ele>
        <time>2011-05-23T08:49:53Z</time>
      </trkpt>
      <trkpt lat="43.04455" lon="-0.49115">
        <ele>1404.623535</ele>
        <time>2011-05-23T08:50:05Z</time>
      </trkpt>
      <trkpt lat="43.04453" lon="-0.49126">
        <ele>1406.06543</ele>
        <time>2011-05-23T08:50:48Z</time>
      </trkpt>
      <trkpt lat="43.04452" lon="-0.49135">
        <ele>1408.949463</ele>
        <time>2011-05-23T08:50:59Z</time>
      </trkpt>
      <trkpt lat="43.04451" lon="-0.49151">
        <ele>1412.794678</ele>
        <time>2011-05-23T08:51:17Z</time>
      </trkpt>
      <trkpt lat="43.04452" lon="-0.49163">
        <ele>1415.678711</ele>
        <time>2011-05-23T08:51:34Z</time>
      </trkpt>
      <trkpt lat="43.04455" lon="-0.49176">
        <ele>1419.043213</ele>
        <time>2011-05-23T08:51:51Z</time>
      </trkpt>
      <trkpt lat="43.04455" lon="-0.49184">
        <ele>1421.927246</ele>
        <time>2011-05-23T08:52:04Z</time>
      </trkpt>
      <trkpt lat="43.04454" lon="-0.49193">
        <ele>1424.811279</ele>
        <time>2011-05-23T08:52:19Z</time>
      </trkpt>
      <trkpt lat="43.04453" lon="-0.49204">
        <ele>1427.2146</ele>
        <time>2011-05-23T08:52:35Z</time>
      </trkpt>
      <trkpt lat="43.04453" lon="-0.49217">
        <ele>1430.579102</ele>
        <time>2011-05-23T08:52:51Z</time>
      </trkpt>
      <trkpt lat="43.04453" lon="-0.49221">
        <ele>1431.540283</ele>
        <time>2011-05-23T08:53:09Z</time>
      </trkpt>
      <trkpt lat="43.04455" lon="-0.49234">
        <ele>1432.982178</ele>
        <time>2011-05-23T08:53:39Z</time>
      </trkpt>
      <trkpt lat="43.04455" lon="-0.49249">
        <ele>1435.866211</ele>
        <time>2011-05-23T08:53:55Z</time>
      </trkpt>
      <trkpt lat="43.04454" lon="-0.49267">
        <ele>1439.230957</ele>
        <time>2011-05-23T08:54:13Z</time>
      </trkpt>
      <trkpt lat="43.04453" lon="-0.49278">
        <ele>1442.595703</ele>
        <time>2011-05-23T08:54:26Z</time>
      </trkpt>
      <trkpt lat="43.04454" lon="-0.49293">
        <ele>1444.518066</ele>
        <time>2011-05-23T08:54:45Z</time>
      </trkpt>
      <trkpt lat="43.04455" lon="-0.49307">
        <ele>1447.882812</ele>
        <time>2011-05-23T08:55:00Z</time>
      </trkpt>
      <trkpt lat="43.04456" lon="-0.49323">
        <ele>1450.286133</ele>
        <time>2011-05-23T08:55:20Z</time>
      </trkpt>
      <trkpt lat="43.04457" lon="-0.4934">
        <ele>1454.131592</ele>
        <time>2011-05-23T08:55:38Z</time>
      </trkpt>
      <trkpt lat="43.04459" lon="-0.49354">
        <ele>1457.496094</ele>
        <time>2011-05-23T08:55:56Z</time>
      </trkpt>
      <trkpt lat="43.04462" lon="-0.49356">
        <ele>1458.937988</ele>
        <time>2011-05-23T08:56:03Z</time>
      </trkpt>
      <trkpt lat="43.04465" lon="-0.49363">
        <ele>1460.860596</ele>
        <time>2011-05-23T08:56:18Z</time>
      </trkpt>
      <trkpt lat="43.04467" lon="-0.49363">
        <ele>1460.379883</ele>
        <time>2011-05-23T08:56:30Z</time>
      </trkpt>
      <trkpt lat="43.04469" lon="-0.49364">
        <ele>1462.783203</ele>
        <time>2011-05-23T08:56:46Z</time>
      </trkpt>
      <trkpt lat="43.04472" lon="-0.49365">
        <ele>1462.30249</ele>
        <time>2011-05-23T08:57:01Z</time>
      </trkpt>
      <trkpt lat="43.04472" lon="-0.49364">
        <ele>1462.783203</ele>
        <time>2011-05-23T08:57:32Z</time>
      </trkpt>
      <trkpt lat="43.04472" lon="-0.49364">
        <ele>1461.341309</ele>
        <time>2011-05-23T08:57:35Z</time>
      </trkpt>
      <trkpt lat="43.04472" lon="-0.49364">
        <ele>1464.705811</ele>
        <time>2011-05-23T08:57:42Z</time>
      </trkpt>
      <trkpt lat="43.04472" lon="-0.49364">
        <ele>1461.822021</ele>
        <time>2011-05-23T08:57:44Z</time>
      </trkpt>
      <trkpt lat="43.04472" lon="-0.49365">
        <ele>1462.30249</ele>
        <time>2011-05-23T08:58:12Z</time>
      </trkpt>
      <trkpt lat="43.0447" lon="-0.49363">
        <ele>1464.705811</ele>
        <time>2011-05-23T09:00:11Z</time>
      </trkpt>
      <trkpt lat="43.04472" lon="-0.49363">
        <ele>1461.341309</ele>
        <time>2011-05-23T09:01:11Z</time>
      </trkpt>
      <trkpt lat="43.04471" lon="-0.49363">
        <ele>1461.822021</ele>
        <time>2011-05-23T09:02:34Z</time>
      </trkpt>
      <trkpt lat="43.04473" lon="-0.49365">
        <ele>1463.744385</ele>
        <time>2011-05-23T09:03:00Z</time>
      </trkpt>
      <trkpt lat="43.04473" lon="-0.49376">
        <ele>1465.667236</ele>
        <time>2011-05-23T09:03:16Z</time>
      </trkpt>
      <trkpt lat="43.04474" lon="-0.49379">
        <ele>1467.5896</ele>
        <time>2011-05-23T09:03:20Z</time>
      </trkpt>
      <trkpt lat="43.04475" lon="-0.49387">
        <ele>1470.95459</ele>
        <time>2011-05-23T09:03:31Z</time>
      </trkpt>
      <trkpt lat="43.04474" lon="-0.49401">
        <ele>1473.838379</ele>
        <time>2011-05-23T09:03:48Z</time>
      </trkpt>
      <trkpt lat="43.04472" lon="-0.49416">
        <ele>1476.241699</ele>
        <time>2011-05-23T09:04:07Z</time>
      </trkpt>
      <trkpt lat="43.04468" lon="-0.49435">
        <ele>1479.606201</ele>
        <time>2011-05-23T09:04:28Z</time>
      </trkpt>
      <trkpt lat="43.04466" lon="-0.49453">
        <ele>1482.009521</ele>
        <time>2011-05-23T09:04:46Z</time>
      </trkpt>
      <trkpt lat="43.04464" lon="-0.49469">
        <ele>1485.374268</ele>
        <time>2011-05-23T09:05:03Z</time>
      </trkpt>
      <trkpt lat="43.04463" lon="-0.49479">
        <ele>1488.258301</ele>
        <time>2011-05-23T09:05:16Z</time>
      </trkpt>
      <trkpt lat="43.04458" lon="-0.4949">
        <ele>1491.622803</ele>
        <time>2011-05-23T09:05:34Z</time>
      </trkpt>
      <trkpt lat="43.0446" lon="-0.495">
        <ele>1494.506592</ele>
        <time>2011-05-23T09:05:51Z</time>
      </trkpt>
      <trkpt lat="43.04463" lon="-0.49509">
        <ele>1497.871338</ele>
        <time>2011-05-23T09:06:05Z</time>
      </trkpt>
      <trkpt lat="43.04463" lon="-0.49519">
        <ele>1501.236084</ele>
        <time>2011-05-23T09:06:21Z</time>
      </trkpt>
      <trkpt lat="43.04464" lon="-0.49525">
        <ele>1502.677979</ele>
        <time>2011-05-23T09:06:30Z</time>
      </trkpt>
      <trkpt lat="43.04465" lon="-0.49533">
        <ele>1505.081299</ele>
        <time>2011-05-23T09:06:44Z</time>
      </trkpt>
      <trkpt lat="43.04469" lon="-0.49537">
        <ele>1508.445801</ele>
        <time>2011-05-23T09:06:56Z</time>
      </trkpt>
      <trkpt lat="43.04473" lon="-0.49546">
        <ele>1511.329834</ele>
        <time>2011-05-23T09:07:11Z</time>
      </trkpt>
      <trkpt lat="43.04476" lon="-0.49557">
        <ele>1514.213623</ele>
        <time>2011-05-23T09:07:26Z</time>
      </trkpt>
      <trkpt lat="43.04479" lon="-0.49565">
        <ele>1517.578369</ele>
        <time>2011-05-23T09:07:39Z</time>
      </trkpt>
      <trkpt lat="43.04482" lon="-0.49574">
        <ele>1520.462402</ele>
        <time>2011-05-23T09:07:50Z</time>
      </trkpt>
      <trkpt lat="43.04482" lon="-0.49575">
        <ele>1520.462402</ele>
        <time>2011-05-23T09:07:51Z</time>
      </trkpt>
      <trkpt lat="43.04484" lon="-0.49589">
        <ele>1523.826904</ele>
        <time>2011-05-23T09:08:09Z</time>
      </trkpt>
      <trkpt lat="43.04481" lon="-0.496">
        <ele>1526.710938</ele>
        <time>2011-05-23T09:08:22Z</time>
      </trkpt>
      <trkpt lat="43.04476" lon="-0.49608">
        <ele>1529.594727</ele>
        <time>2011-05-23T09:08:37Z</time>
      </trkpt>
      <trkpt lat="43.04472" lon="-0.49617">
        <ele>1531.998047</ele>
        <time>2011-05-23T09:08:56Z</time>
      </trkpt>
      <trkpt lat="43.04473" lon="-0.49616">
        <ele>1532.479004</ele>
        <time>2011-05-23T09:09:34Z</time>
      </trkpt>
      <trkpt lat="43.04476" lon="-0.49621">
        <ele>1533.440186</ele>
        <time>2011-05-23T09:09:51Z</time>
      </trkpt>
      <trkpt lat="43.04481" lon="-0.49634">
        <ele>1534.882324</ele>
        <time>2011-05-23T09:10:08Z</time>
      </trkpt>
      <trkpt lat="43.04481" lon="-0.49638">
        <ele>1537.2854</ele>
        <time>2011-05-23T09:10:14Z</time>
      </trkpt>
      <trkpt lat="43.04482" lon="-0.49643">
        <ele>1539.688721</ele>
        <time>2011-05-23T09:10:20Z</time>
      </trkpt>
      <trkpt lat="43.04483" lon="-0.49662">
        <ele>1543.053223</ele>
        <time>2011-05-23T09:10:38Z</time>
      </trkpt>
      <trkpt lat="43.0448" lon="-0.49682">
        <ele>1543.053223</ele>
        <time>2011-05-23T09:10:56Z</time>
      </trkpt>
      <trkpt lat="43.04478" lon="-0.49698">
        <ele>1545.937256</ele>
        <time>2011-05-23T09:11:12Z</time>
      </trkpt>
      <trkpt lat="43.04477" lon="-0.49699">
        <ele>1546.417969</ele>
        <time>2011-05-23T09:11:13Z</time>
      </trkpt>
      <trkpt lat="43.04477" lon="-0.497">
        <ele>1547.37915</ele>
        <time>2011-05-23T09:11:15Z</time>
      </trkpt>
      <trkpt lat="43.04474" lon="-0.49722">
        <ele>1548.821289</ele>
        <time>2011-05-23T09:11:35Z</time>
      </trkpt>
      <trkpt lat="43.04472" lon="-0.49735">
        <ele>1551.224609</ele>
        <time>2011-05-23T09:11:48Z</time>
      </trkpt>
      <trkpt lat="43.04472" lon="-0.49755">
        <ele>1554.108643</ele>
        <time>2011-05-23T09:12:06Z</time>
      </trkpt>
      <trkpt lat="43.04472" lon="-0.49775">
        <ele>1556.511719</ele>
        <time>2011-05-23T09:12:26Z</time>
      </trkpt>
      <trkpt lat="43.04471" lon="-0.4978">
        <ele>1557.953857</ele>
        <time>2011-05-23T09:12:33Z</time>
      </trkpt>
      <trkpt lat="43.04468" lon="-0.49798">
        <ele>1560.356934</ele>
        <time>2011-05-23T09:12:52Z</time>
      </trkpt>
      <trkpt lat="43.04465" lon="-0.49808">
        <ele>1563.240967</ele>
        <time>2011-05-23T09:13:03Z</time>
      </trkpt>
      <trkpt lat="43.04458" lon="-0.4982">
        <ele>1565.644531</ele>
        <time>2011-05-23T09:13:19Z</time>
      </trkpt>
      <trkpt lat="43.04454" lon="-0.4983">
        <ele>1567.566895</ele>
        <time>2011-05-23T09:13:39Z</time>
      </trkpt>
      <trkpt lat="43.04448" lon="-0.49852">
        <ele>1569.009033</ele>
        <time>2011-05-23T09:13:59Z</time>
      </trkpt>
      <trkpt lat="43.04445" lon="-0.49861">
        <ele>1569.489746</ele>
        <time>2011-05-23T09:14:15Z</time>
      </trkpt>
      <trkpt lat="43.04441" lon="-0.49878">
        <ele>1569.970215</ele>
        <time>2011-05-23T09:14:34Z</time>
      </trkpt>
      <trkpt lat="43.04437" lon="-0.49905">
        <ele>1571.412109</ele>
        <time>2011-05-23T09:14:53Z</time>
      </trkpt>
      <trkpt lat="43.04434" lon="-0.4992">
        <ele>1574.776855</ele>
        <time>2011-05-23T09:15:05Z</time>
      </trkpt>
      <trkpt lat="43.04433" lon="-0.49925">
        <ele>1575.257324</ele>
        <time>2011-05-23T09:15:09Z</time>
      </trkpt>
      <trkpt lat="43.0443" lon="-0.49943">
        <ele>1578.141357</ele>
        <time>2011-05-23T09:15:25Z</time>
      </trkpt>
      <trkpt lat="43.04428" lon="-0.49965">
        <ele>1581.506104</ele>
        <time>2011-05-23T09:15:44Z</time>
      </trkpt>
      <trkpt lat="43.04425" lon="-0.49991">
        <ele>1583.428711</ele>
        <time>2011-05-23T09:16:04Z</time>
      </trkpt>
      <trkpt lat="43.04421" lon="-0.50009">
        <ele>1587.273926</ele>
        <time>2011-05-23T09:16:21Z</time>
      </trkpt>
      <trkpt lat="43.04421" lon="-0.50009">
        <ele>1587.273926</ele>
        <time>2011-05-23T09:16:22Z</time>
      </trkpt>
      <trkpt lat="43.04418" lon="-0.5002">
        <ele>1589.196533</ele>
        <time>2011-05-23T09:16:39Z</time>
      </trkpt>
      <trkpt lat="43.04414" lon="-0.50039">
        <ele>1591.599854</ele>
        <time>2011-05-23T09:16:57Z</time>
      </trkpt>
      <trkpt lat="43.04415" lon="-0.50053">
        <ele>1593.522461</ele>
        <time>2011-05-23T09:17:14Z</time>
      </trkpt>
      <trkpt lat="43.04418" lon="-0.50062">
        <ele>1597.36792</ele>
        <time>2011-05-23T09:17:28Z</time>
      </trkpt>
      <trkpt lat="43.04421" lon="-0.5007">
        <ele>1600.732422</ele>
        <time>2011-05-23T09:17:42Z</time>
      </trkpt>
      <trkpt lat="43.04422" lon="-0.50075">
        <ele>1601.693848</ele>
        <time>2011-05-23T09:17:48Z</time>
      </trkpt>
      <trkpt lat="43.04423" lon="-0.5008">
        <ele>1603.135742</ele>
        <time>2011-05-23T09:17:56Z</time>
      </trkpt>
      <trkpt lat="43.04426" lon="-0.50089">
        <ele>1606.019531</ele>
        <time>2011-05-23T09:18:08Z</time>
      </trkpt>
      <trkpt lat="43.04433" lon="-0.50099">
        <ele>1608.903564</ele>
        <time>2011-05-23T09:18:27Z</time>
      </trkpt>
      <trkpt lat="43.04444" lon="-0.50099">
        <ele>1612.268311</ele>
        <time>2011-05-23T09:18:45Z</time>
      </trkpt>
      <trkpt lat="43.0445" lon="-0.50098">
        <ele>1614.671631</ele>
        <time>2011-05-23T09:18:54Z</time>
      </trkpt>
      <trkpt lat="43.04458" lon="-0.50099">
        <ele>1617.074951</ele>
        <time>2011-05-23T09:19:08Z</time>
      </trkpt>
      <trkpt lat="43.0446" lon="-0.50101">
        <ele>1618.036133</ele>
        <time>2011-05-23T09:19:27Z</time>
      </trkpt>
      <trkpt lat="43.0446" lon="-0.50103">
        <ele>1617.55542</ele>
        <time>2011-05-23T09:19:56Z</time>
      </trkpt>
      <trkpt lat="43.04466" lon="-0.50105">
        <ele>1617.55542</ele>
        <time>2011-05-23T09:20:15Z</time>
      </trkpt>
      <trkpt lat="43.04472" lon="-0.50103">
        <ele>1617.55542</ele>
        <time>2011-05-23T09:20:24Z</time>
      </trkpt>
      <trkpt lat="43.04477" lon="-0.50098">
        <ele>1616.594238</ele>
        <time>2011-05-23T09:20:30Z</time>
      </trkpt>
      <trkpt lat="43.04478" lon="-0.50096">
        <ele>1616.113525</ele>
        <time>2011-05-23T09:20:32Z</time>
      </trkpt>
      <trkpt lat="43.04492" lon="-0.50085">
        <ele>1615.633057</ele>
        <time>2011-05-23T09:20:51Z</time>
      </trkpt>
      <trkpt lat="43.04505" lon="-0.50076">
        <ele>1614.671631</ele>
        <time>2011-05-23T09:21:06Z</time>
      </trkpt>
      <trkpt lat="43.04506" lon="-0.50074">
        <ele>1614.671631</ele>
        <time>2011-05-23T09:21:22Z</time>
      </trkpt>
      <trkpt lat="43.04511" lon="-0.50059">
        <ele>1617.074951</ele>
        <time>2011-05-23T09:21:57Z</time>
      </trkpt>
      <trkpt lat="43.04512" lon="-0.50052">
        <ele>1617.55542</ele>
        <time>2011-05-23T09:22:14Z</time>
      </trkpt>
      <trkpt lat="43.04512" lon="-0.50051">
        <ele>1617.55542</ele>
        <time>2011-05-23T09:22:35Z</time>
      </trkpt>
      <trkpt lat="43.04515" lon="-0.5004">
        <ele>1616.113525</ele>
        <time>2011-05-23T09:22:49Z</time>
      </trkpt>
      <trkpt lat="43.04515" lon="-0.50039">
        <ele>1616.594238</ele>
        <time>2011-05-23T09:22:50Z</time>
      </trkpt>
      <trkpt lat="43.04517" lon="-0.50014">
        <ele>1615.633057</ele>
        <time>2011-05-23T09:23:11Z</time>
      </trkpt>
      <trkpt lat="43.04523" lon="-0.50002">
        <ele>1614.671631</ele>
        <time>2011-05-23T09:23:34Z</time>
      </trkpt>
      <trkpt lat="43.04529" lon="-0.49989">
        <ele>1613.229736</ele>
        <time>2011-05-23T09:23:47Z</time>
      </trkpt>
      <trkpt lat="43.04537" lon="-0.49968">
        <ele>1612.749023</ele>
        <time>2011-05-23T09:24:04Z</time>
      </trkpt>
      <trkpt lat="43.04545" lon="-0.49951">
        <ele>1614.190918</ele>
        <time>2011-05-23T09:24:20Z</time>
      </trkpt>
      <trkpt lat="43.04552" lon="-0.49943">
        <ele>1617.55542</ele>
        <time>2011-05-23T09:24:32Z</time>
      </trkpt>
      <trkpt lat="43.04564" lon="-0.49931">
        <ele>1619.478271</ele>
        <time>2011-05-23T09:24:50Z</time>
      </trkpt>
      <trkpt lat="43.0457" lon="-0.49923">
        <ele>1620.439453</ele>
        <time>2011-05-23T09:25:06Z</time>
      </trkpt>
      <trkpt lat="43.04579" lon="-0.49908">
        <ele>1621.881348</ele>
        <time>2011-05-23T09:25:21Z</time>
      </trkpt>
      <trkpt lat="43.04589" lon="-0.49895">
        <ele>1623.323486</ele>
        <time>2011-05-23T09:25:38Z</time>
      </trkpt>
      <trkpt lat="43.04594" lon="-0.49884">
        <ele>1624.284668</ele>
        <time>2011-05-23T09:25:56Z</time>
      </trkpt>
      <trkpt lat="43.04598" lon="-0.49877">
        <ele>1625.24585</ele>
        <time>2011-05-23T09:26:03Z</time>
      </trkpt>
      <trkpt lat="43.04602" lon="-0.4986">
        <ele>1625.726562</ele>
        <time>2011-05-23T09:26:19Z</time>
      </trkpt>
      <trkpt lat="43.04609" lon="-0.49846">
        <ele>1628.130127</ele>
        <time>2011-05-23T09:26:34Z</time>
      </trkpt>
      <trkpt lat="43.04608" lon="-0.49845">
        <ele>1626.687988</ele>
        <time>2011-05-23T09:27:09Z</time>
      </trkpt>
      <trkpt lat="43.04614" lon="-0.49833">
        <ele>1627.64917</ele>
        <time>2011-05-23T09:27:27Z</time>
      </trkpt>
      <trkpt lat="43.04613" lon="-0.49835">
        <ele>1628.130127</ele>
        <time>2011-05-23T09:28:40Z</time>
      </trkpt>
      <trkpt lat="43.04612" lon="-0.49836">
        <ele>1628.61084</ele>
        <time>2011-05-23T09:29:21Z</time>
      </trkpt>
      <trkpt lat="43.04613" lon="-0.49834">
        <ele>1627.64917</ele>
        <time>2011-05-23T09:29:54Z</time>
      </trkpt>
      <trkpt lat="43.04613" lon="-0.49829">
        <ele>1627.64917</ele>
        <time>2011-05-23T09:30:27Z</time>
      </trkpt>
      <trkpt lat="43.04615" lon="-0.49825">
        <ele>1628.61084</ele>
        <time>2011-05-23T09:30:53Z</time>
      </trkpt>
      <trkpt lat="43.04622" lon="-0.49809">
        <ele>1628.61084</ele>
        <time>2011-05-23T09:31:13Z</time>
      </trkpt>
      <trkpt lat="43.0463" lon="-0.49799">
        <ele>1630.052734</ele>
        <time>2011-05-23T09:31:29Z</time>
      </trkpt>
      <trkpt lat="43.04633" lon="-0.49793">
        <ele>1630.052734</ele>
        <time>2011-05-23T09:31:47Z</time>
      </trkpt>
      <trkpt lat="43.04634" lon="-0.49791">
        <ele>1630.533447</ele>
        <time>2011-05-23T09:32:13Z</time>
      </trkpt>
      <trkpt lat="43.04634" lon="-0.4979">
        <ele>1630.052734</ele>
        <time>2011-05-23T09:32:43Z</time>
      </trkpt>
      <trkpt lat="43.04636" lon="-0.49789">
        <ele>1631.01416</ele>
        <time>2011-05-23T09:33:50Z</time>
      </trkpt>
      <trkpt lat="43.0464" lon="-0.49785">
        <ele>1632.456055</ele>
        <time>2011-05-23T09:34:10Z</time>
      </trkpt>
      <trkpt lat="43.04649" lon="-0.49771">
        <ele>1634.859375</ele>
        <time>2011-05-23T09:34:28Z</time>
      </trkpt>
      <trkpt lat="43.04656" lon="-0.49756">
        <ele>1635.820557</ele>
        <time>2011-05-23T09:34:46Z</time>
      </trkpt>
      <trkpt lat="43.04659" lon="-0.49744">
        <ele>1636.30127</ele>
        <time>2011-05-23T09:35:02Z</time>
      </trkpt>
      <trkpt lat="43.04665" lon="-0.49727">
        <ele>1636.781738</ele>
        <time>2011-05-23T09:35:18Z</time>
      </trkpt>
      <trkpt lat="43.04669" lon="-0.49713">
        <ele>1637.743164</ele>
        <time>2011-05-23T09:35:33Z</time>
      </trkpt>
      <trkpt lat="43.04673" lon="-0.49693">
        <ele>1637.743164</ele>
        <time>2011-05-23T09:35:50Z</time>
      </trkpt>
      <trkpt lat="43.04676" lon="-0.49676">
        <ele>1637.743164</ele>
        <time>2011-05-23T09:36:05Z</time>
      </trkpt>
      <trkpt lat="43.04682" lon="-0.49665">
        <ele>1641.588379</ele>
        <time>2011-05-23T09:36:19Z</time>
      </trkpt>
      <trkpt lat="43.04691" lon="-0.49649">
        <ele>1643.510986</ele>
        <time>2011-05-23T09:36:37Z</time>
      </trkpt>
      <trkpt lat="43.0469" lon="-0.49649">
        <ele>1643.510986</ele>
        <time>2011-05-23T09:36:59Z</time>
      </trkpt>
      <trkpt lat="43.0469" lon="-0.4966">
        <ele>1644.472412</ele>
        <time>2011-05-23T09:37:31Z</time>
      </trkpt>
      <trkpt lat="43.04688" lon="-0.49678">
        <ele>1647.837158</ele>
        <time>2011-05-23T09:37:49Z</time>
      </trkpt>
      <trkpt lat="43.04687" lon="-0.49687">
        <ele>1648.79834</ele>
        <time>2011-05-23T09:38:08Z</time>
      </trkpt>
      <trkpt lat="43.04688" lon="-0.49696">
        <ele>1648.79834</ele>
        <time>2011-05-23T09:38:26Z</time>
      </trkpt>
      <trkpt lat="43.04688" lon="-0.49697">
        <ele>1648.317627</ele>
        <time>2011-05-23T09:38:27Z</time>
      </trkpt>
      <trkpt lat="43.04685" lon="-0.49718">
        <ele>1650.240479</ele>
        <time>2011-05-23T09:38:45Z</time>
      </trkpt>
      <trkpt lat="43.04684" lon="-0.49734">
        <ele>1652.162842</ele>
        <time>2011-05-23T09:39:02Z</time>
      </trkpt>
      <trkpt lat="43.04684" lon="-0.49735">
        <ele>1652.643555</ele>
        <time>2011-05-23T09:39:21Z</time>
      </trkpt>
      <trkpt lat="43.04683" lon="-0.49736">
        <ele>1653.60498</ele>
        <time>2011-05-23T09:40:06Z</time>
      </trkpt>
      <trkpt lat="43.04681" lon="-0.49739">
        <ele>1652.643555</ele>
        <time>2011-05-23T09:40:39Z</time>
      </trkpt>
      <trkpt lat="43.04677" lon="-0.49746">
        <ele>1650.240479</ele>
        <time>2011-05-23T09:40:55Z</time>
      </trkpt>
      <trkpt lat="43.04677" lon="-0.49746">
        <ele>1648.317627</ele>
        <time>2011-05-23T09:41:03Z</time>
      </trkpt>
      <trkpt lat="43.04677" lon="-0.49746">
        <ele>1653.124268</ele>
        <time>2011-05-23T09:41:05Z</time>
      </trkpt>
      <trkpt lat="43.04677" lon="-0.49746">
        <ele>1652.643555</ele>
        <time>2011-05-23T09:41:06Z</time>
      </trkpt>
      <trkpt lat="43.04677" lon="-0.49746">
        <ele>1651.682373</ele>
        <time>2011-05-23T09:41:08Z</time>
      </trkpt>
      <trkpt lat="43.04673" lon="-0.49757">
        <ele>1648.317627</ele>
        <time>2011-05-23T09:41:22Z</time>
      </trkpt>
      <trkpt lat="43.04672" lon="-0.49761">
        <ele>1647.356445</ele>
        <time>2011-05-23T09:41:26Z</time>
      </trkpt>
      <trkpt lat="43.04668" lon="-0.49769">
        <ele>1645.433838</ele>
        <time>2011-05-23T09:41:37Z</time>
      </trkpt>
      <trkpt lat="43.04665" lon="-0.49774">
        <ele>1643.991699</ele>
        <time>2011-05-23T09:41:43Z</time>
      </trkpt>
      <trkpt lat="43.04657" lon="-0.49781">
        <ele>1641.107666</ele>
        <time>2011-05-23T09:41:55Z</time>
      </trkpt>
      <trkpt lat="43.04647" lon="-0.49785">
        <ele>1637.743164</ele>
        <time>2011-05-23T09:42:13Z</time>
      </trkpt>
      <trkpt lat="43.04642" lon="-0.49788">
        <ele>1636.30127</ele>
        <time>2011-05-23T09:42:29Z</time>
      </trkpt>
      <trkpt lat="43.04635" lon="-0.4979">
        <ele>1632.456055</ele>
        <time>2011-05-23T09:42:41Z</time>
      </trkpt>
      <trkpt lat="43.04623" lon="-0.49804">
        <ele>1630.533447</ele>
        <time>2011-05-23T09:43:01Z</time>
      </trkpt>
      <trkpt lat="43.04616" lon="-0.49817">
        <ele>1629.572021</ele>
        <time>2011-05-23T09:43:15Z</time>
      </trkpt>
      <trkpt lat="43.04612" lon="-0.49834">
        <ele>1631.01416</ele>
        <time>2011-05-23T09:43:32Z</time>
      </trkpt>
      <trkpt lat="43.04604" lon="-0.49849">
        <ele>1629.091309</ele>
        <time>2011-05-23T09:43:50Z</time>
      </trkpt>
      <trkpt lat="43.04596" lon="-0.49863">
        <ele>1628.61084</ele>
        <time>2011-05-23T09:44:03Z</time>
      </trkpt>
      <trkpt lat="43.04591" lon="-0.49883">
        <ele>1627.168701</ele>
        <time>2011-05-23T09:44:22Z</time>
      </trkpt>
      <trkpt lat="43.04584" lon="-0.499">
        <ele>1624.284668</ele>
        <time>2011-05-23T09:44:38Z</time>
      </trkpt>
      <trkpt lat="43.04571" lon="-0.49917">
        <ele>1623.323486</ele>
        <time>2011-05-23T09:44:57Z</time>
      </trkpt>
      <trkpt lat="43.04565" lon="-0.49923">
        <ele>1622.362061</ele>
        <time>2011-05-23T09:45:04Z</time>
      </trkpt>
      <trkpt lat="43.04552" lon="-0.49939">
        <ele>1619.95874</ele>
        <time>2011-05-23T09:45:23Z</time>
      </trkpt>
      <trkpt lat="43.04549" lon="-0.49942">
        <ele>1620.439453</ele>
        <time>2011-05-23T09:45:28Z</time>
      </trkpt>
      <trkpt lat="43.04543" lon="-0.49947">
        <ele>1618.516846</ele>
        <time>2011-05-23T09:45:37Z</time>
      </trkpt>
      <trkpt lat="43.04536" lon="-0.49964">
        <ele>1615.633057</ele>
        <time>2011-05-23T09:45:51Z</time>
      </trkpt>
      <trkpt lat="43.04529" lon="-0.49976">
        <ele>1615.633057</ele>
        <time>2011-05-23T09:46:01Z</time>
      </trkpt>
      <trkpt lat="43.04522" lon="-0.50004">
        <ele>1616.594238</ele>
        <time>2011-05-23T09:46:22Z</time>
      </trkpt>
      <trkpt lat="43.04515" lon="-0.50031">
        <ele>1617.55542</ele>
        <time>2011-05-23T09:46:42Z</time>
      </trkpt>
      <trkpt lat="43.04513" lon="-0.5005">
        <ele>1618.997559</ele>
        <time>2011-05-23T09:46:58Z</time>
      </trkpt>
      <trkpt lat="43.04512" lon="-0.50056">
        <ele>1619.478271</ele>
        <time>2011-05-23T09:47:13Z</time>
      </trkpt>
      <trkpt lat="43.04507" lon="-0.50071">
        <ele>1618.516846</ele>
        <time>2011-05-23T09:47:26Z</time>
      </trkpt>
      <trkpt lat="43.04489" lon="-0.50089">
        <ele>1618.036133</ele>
        <time>2011-05-23T09:47:46Z</time>
      </trkpt>
      <trkpt lat="43.04468" lon="-0.50104">
        <ele>1620.920166</ele>
        <time>2011-05-23T09:48:07Z</time>
      </trkpt>
      <trkpt lat="43.04457" lon="-0.5011">
        <ele>1621.881348</ele>
        <time>2011-05-23T09:48:18Z</time>
      </trkpt>
      <trkpt lat="43.04447" lon="-0.5013">
        <ele>1624.284668</ele>
        <time>2011-05-23T09:48:37Z</time>
      </trkpt>
      <trkpt lat="43.04437" lon="-0.50148">
        <ele>1625.726562</ele>
        <time>2011-05-23T09:48:56Z</time>
      </trkpt>
      <trkpt lat="43.04431" lon="-0.50167">
        <ele>1629.091309</ele>
        <time>2011-05-23T09:49:15Z</time>
      </trkpt>
      <trkpt lat="43.0443" lon="-0.50171">
        <ele>1630.533447</ele>
        <time>2011-05-23T09:49:19Z</time>
      </trkpt>
      <trkpt lat="43.04427" lon="-0.50186">
        <ele>1631.975342</ele>
        <time>2011-05-23T09:49:31Z</time>
      </trkpt>
      <trkpt lat="43.04419" lon="-0.50211">
        <ele>1634.378662</ele>
        <time>2011-05-23T09:49:52Z</time>
      </trkpt>
      <trkpt lat="43.04413" lon="-0.50231">
        <ele>1636.30127</ele>
        <time>2011-05-23T09:50:10Z</time>
      </trkpt>
      <trkpt lat="43.04408" lon="-0.50249">
        <ele>1639.185059</ele>
        <time>2011-05-23T09:50:27Z</time>
      </trkpt>
      <trkpt lat="43.04407" lon="-0.50261">
        <ele>1643.030273</ele>
        <time>2011-05-23T09:50:40Z</time>
      </trkpt>
      <trkpt lat="43.04412" lon="-0.50274">
        <ele>1644.953125</ele>
        <time>2011-05-23T09:50:56Z</time>
      </trkpt>
      <trkpt lat="43.04414" lon="-0.5028">
        <ele>1646.395264</ele>
        <time>2011-05-23T09:51:02Z</time>
      </trkpt>
      <trkpt lat="43.04418" lon="-0.50296">
        <ele>1647.356445</ele>
        <time>2011-05-23T09:51:18Z</time>
      </trkpt>
      <trkpt lat="43.04421" lon="-0.50319">
        <ele>1647.356445</ele>
        <time>2011-05-23T09:51:36Z</time>
      </trkpt>
      <trkpt lat="43.04431" lon="-0.50336">
        <ele>1648.79834</ele>
        <time>2011-05-23T09:51:54Z</time>
      </trkpt>
      <trkpt lat="43.04432" lon="-0.50338">
        <ele>1650.240479</ele>
        <time>2011-05-23T09:51:57Z</time>
      </trkpt>
      <trkpt lat="43.04436" lon="-0.50341">
        <ele>1650.720947</ele>
        <time>2011-05-23T09:52:15Z</time>
      </trkpt>
      <trkpt lat="43.04439" lon="-0.50342">
        <ele>1654.085693</ele>
        <time>2011-05-23T09:52:38Z</time>
      </trkpt>
      <trkpt lat="43.04448" lon="-0.50342">
        <ele>1652.643555</ele>
        <time>2011-05-23T09:52:50Z</time>
      </trkpt>
      <trkpt lat="43.04461" lon="-0.50339">
        <ele>1655.527588</ele>
        <time>2011-05-23T09:53:06Z</time>
      </trkpt>
      <trkpt lat="43.04466" lon="-0.5034">
        <ele>1656.969482</ele>
        <time>2011-05-23T09:53:13Z</time>
      </trkpt>
      <trkpt lat="43.0447" lon="-0.5034">
        <ele>1658.89209</ele>
        <time>2011-05-23T09:53:18Z</time>
      </trkpt>
      <trkpt lat="43.04484" lon="-0.50338">
        <ele>1661.295654</ele>
        <time>2011-05-23T09:53:35Z</time>
      </trkpt>
      <trkpt lat="43.04499" lon="-0.5035">
        <ele>1663.69873</ele>
        <time>2011-05-23T09:53:56Z</time>
      </trkpt>
      <trkpt lat="43.04515" lon="-0.50365">
        <ele>1665.621582</ele>
        <time>2011-05-23T09:54:19Z</time>
      </trkpt>
      <trkpt lat="43.04525" lon="-0.50373">
        <ele>1668.505371</ele>
        <time>2011-05-23T09:54:34Z</time>
      </trkpt>
      <trkpt lat="43.04539" lon="-0.50384">
        <ele>1670.908691</ele>
        <time>2011-05-23T09:54:53Z</time>
      </trkpt>
      <trkpt lat="43.04554" lon="-0.50399">
        <ele>1674.753906</ele>
        <time>2011-05-23T09:55:16Z</time>
      </trkpt>
      <trkpt lat="43.04564" lon="-0.50405">
        <ele>1675.715088</ele>
        <time>2011-05-23T09:55:36Z</time>
      </trkpt>
      <trkpt lat="43.04577" lon="-0.50412">
        <ele>1678.118652</ele>
        <time>2011-05-23T09:55:52Z</time>
      </trkpt>
      <trkpt lat="43.04578" lon="-0.50412">
        <ele>1678.118652</ele>
        <time>2011-05-23T09:55:53Z</time>
      </trkpt>
      <trkpt lat="43.04585" lon="-0.50419">
        <ele>1678.599365</ele>
        <time>2011-05-23T09:56:02Z</time>
      </trkpt>
      <trkpt lat="43.04601" lon="-0.50433">
        <ele>1680.521973</ele>
        <time>2011-05-23T09:56:22Z</time>
      </trkpt>
      <trkpt lat="43.04612" lon="-0.50444">
        <ele>1682.44458</ele>
        <time>2011-05-23T09:56:37Z</time>
      </trkpt>
      <trkpt lat="43.04624" lon="-0.50458">
        <ele>1684.8479</ele>
        <time>2011-05-23T09:56:54Z</time>
      </trkpt>
      <trkpt lat="43.04637" lon="-0.50473">
        <ele>1687.250977</ele>
        <time>2011-05-23T09:57:15Z</time>
      </trkpt>
      <trkpt lat="43.04648" lon="-0.50488">
        <ele>1689.173584</ele>
        <time>2011-05-23T09:57:34Z</time>
      </trkpt>
      <trkpt lat="43.04658" lon="-0.50498">
        <ele>1692.057861</ele>
        <time>2011-05-23T09:57:52Z</time>
      </trkpt>
      <trkpt lat="43.04666" lon="-0.50504">
        <ele>1693.019043</ele>
        <time>2011-05-23T09:58:05Z</time>
      </trkpt>
      <trkpt lat="43.04667" lon="-0.50506">
        <ele>1693.980469</ele>
        <time>2011-05-23T09:58:38Z</time>
      </trkpt>
      <trkpt lat="43.04671" lon="-0.50514">
        <ele>1696.864258</ele>
        <time>2011-05-23T09:59:00Z</time>
      </trkpt>
      <trkpt lat="43.04672" lon="-0.50515">
        <ele>1694.94165</ele>
        <time>2011-05-23T09:59:01Z</time>
      </trkpt>
      <trkpt lat="43.0468" lon="-0.50525">
        <ele>1697.825684</ele>
        <time>2011-05-23T09:59:13Z</time>
      </trkpt>
      <trkpt lat="43.04682" lon="-0.50527">
        <ele>1698.786865</ele>
        <time>2011-05-23T09:59:15Z</time>
      </trkpt>
      <trkpt lat="43.04689" lon="-0.50538">
        <ele>1700.709473</ele>
        <time>2011-05-23T09:59:26Z</time>
      </trkpt>
      <trkpt lat="43.04698" lon="-0.50562">
        <ele>1704.074219</ele>
        <time>2011-05-23T09:59:47Z</time>
      </trkpt>
      <trkpt lat="43.0471" lon="-0.5058">
        <ele>1706.958008</ele>
        <time>2011-05-23T10:00:07Z</time>
      </trkpt>
      <trkpt lat="43.04718" lon="-0.50593">
        <ele>1709.842041</ele>
        <time>2011-05-23T10:00:22Z</time>
      </trkpt>
      <trkpt lat="43.04727" lon="-0.50612">
        <ele>1710.803467</ele>
        <time>2011-05-23T10:00:40Z</time>
      </trkpt>
      <trkpt lat="43.04741" lon="-0.50633">
        <ele>1712.726074</ele>
        <time>2011-05-23T10:01:02Z</time>
      </trkpt>
      <trkpt lat="43.04748" lon="-0.50648">
        <ele>1713.206787</ele>
        <time>2011-05-23T10:01:19Z</time>
      </trkpt>
      <trkpt lat="43.04751" lon="-0.50649">
        <ele>1714.648682</ele>
        <time>2011-05-23T10:01:58Z</time>
      </trkpt>
      <trkpt lat="43.04751" lon="-0.50649">
        <ele>1713.206787</ele>
        <time>2011-05-23T10:02:01Z</time>
      </trkpt>
      <trkpt lat="43.04757" lon="-0.50658">
        <ele>1714.648682</ele>
        <time>2011-05-23T10:02:27Z</time>
      </trkpt>
      <trkpt lat="43.04763" lon="-0.50672">
        <ele>1714.648682</ele>
        <time>2011-05-23T10:02:46Z</time>
      </trkpt>
      <trkpt lat="43.04773" lon="-0.50694">
        <ele>1714.648682</ele>
        <time>2011-05-23T10:03:05Z</time>
      </trkpt>
      <trkpt lat="43.04781" lon="-0.50714">
        <ele>1713.687256</ele>
        <time>2011-05-23T10:03:22Z</time>
      </trkpt>
      <trkpt lat="43.04785" lon="-0.50716">
        <ele>1714.167969</ele>
        <time>2011-05-23T10:03:38Z</time>
      </trkpt>
      <trkpt lat="43.04785" lon="-0.50721">
        <ele>1713.687256</ele>
        <time>2011-05-23T10:03:56Z</time>
      </trkpt>
      <trkpt lat="43.04794" lon="-0.5075">
        <ele>1713.206787</ele>
        <time>2011-05-23T10:04:17Z</time>
      </trkpt>
      <trkpt lat="43.04805" lon="-0.50767">
        <ele>1716.090576</ele>
        <time>2011-05-23T10:04:36Z</time>
      </trkpt>
      <trkpt lat="43.04817" lon="-0.50777">
        <ele>1718.493896</ele>
        <time>2011-05-23T10:04:56Z</time>
      </trkpt>
      <trkpt lat="43.04825" lon="-0.50789">
        <ele>1720.897217</ele>
        <time>2011-05-23T10:05:11Z</time>
      </trkpt>
      <trkpt lat="43.04835" lon="-0.50799">
        <ele>1723.781006</ele>
        <time>2011-05-23T10:05:27Z</time>
      </trkpt>
      <trkpt lat="43.04844" lon="-0.5081">
        <ele>1727.145996</ele>
        <time>2011-05-23T10:05:44Z</time>
      </trkpt>
      <trkpt lat="43.04856" lon="-0.50822">
        <ele>1730.029785</ele>
        <time>2011-05-23T10:06:05Z</time>
      </trkpt>
      <trkpt lat="43.04865" lon="-0.5083">
        <ele>1733.875</ele>
        <time>2011-05-23T10:06:23Z</time>
      </trkpt>
      <trkpt lat="43.04874" lon="-0.50836">
        <ele>1737.239502</ele>
        <time>2011-05-23T10:06:42Z</time>
      </trkpt>
      <trkpt lat="43.04881" lon="-0.5084">
        <ele>1740.123779</ele>
        <time>2011-05-23T10:06:56Z</time>
      </trkpt>
      <trkpt lat="43.04887" lon="-0.50839">
        <ele>1743.488281</ele>
        <time>2011-05-23T10:07:14Z</time>
      </trkpt>
      <trkpt lat="43.04893" lon="-0.50839">
        <ele>1746.852783</ele>
        <time>2011-05-23T10:07:26Z</time>
      </trkpt>
      <trkpt lat="43.04899" lon="-0.50845">
        <ele>1748.775391</ele>
        <time>2011-05-23T10:07:43Z</time>
      </trkpt>
      <trkpt lat="43.04901" lon="-0.5084">
        <ele>1752.139893</ele>
        <time>2011-05-23T10:07:56Z</time>
      </trkpt>
      <trkpt lat="43.04905" lon="-0.50842">
        <ele>1755.023926</ele>
        <time>2011-05-23T10:08:07Z</time>
      </trkpt>
      <trkpt lat="43.04906" lon="-0.50844">
        <ele>1755.985107</ele>
        <time>2011-05-23T10:08:27Z</time>
      </trkpt>
      <trkpt lat="43.0491" lon="-0.50844">
        <ele>1757.908203</ele>
        <time>2011-05-23T10:08:53Z</time>
      </trkpt>
      <trkpt lat="43.04912" lon="-0.50846">
        <ele>1758.869385</ele>
        <time>2011-05-23T10:09:07Z</time>
      </trkpt>
      <trkpt lat="43.04914" lon="-0.50849">
        <ele>1760.311279</ele>
        <time>2011-05-23T10:10:19Z</time>
      </trkpt>
      <trkpt lat="43.0492" lon="-0.50849">
        <ele>1762.7146</ele>
        <time>2011-05-23T10:10:33Z</time>
      </trkpt>
      <trkpt lat="43.04925" lon="-0.50851">
        <ele>1765.11792</ele>
        <time>2011-05-23T10:10:48Z</time>
      </trkpt>
      <trkpt lat="43.04929" lon="-0.50853">
        <ele>1768.001709</ele>
        <time>2011-05-23T10:11:03Z</time>
      </trkpt>
      <trkpt lat="43.04932" lon="-0.50852">
        <ele>1769.443848</ele>
        <time>2011-05-23T10:11:22Z</time>
      </trkpt>
      <trkpt lat="43.04932" lon="-0.50847">
        <ele>1772.808594</ele>
        <time>2011-05-23T10:11:32Z</time>
      </trkpt>
      <trkpt lat="43.04932" lon="-0.50846">
        <ele>1772.808594</ele>
        <time>2011-05-23T10:11:33Z</time>
      </trkpt>
      <trkpt lat="43.04932" lon="-0.50841">
        <ele>1776.173096</ele>
        <time>2011-05-23T10:11:42Z</time>
      </trkpt>
      <trkpt lat="43.04931" lon="-0.50832">
        <ele>1778.095703</ele>
        <time>2011-05-23T10:11:59Z</time>
      </trkpt>
      <trkpt lat="43.04938" lon="-0.50832">
        <ele>1780.018311</ele>
        <time>2011-05-23T10:12:14Z</time>
      </trkpt>
      <trkpt lat="43.04942" lon="-0.50836">
        <ele>1783.382812</ele>
        <time>2011-05-23T10:12:23Z</time>
      </trkpt>
      <trkpt lat="43.04944" lon="-0.50838">
        <ele>1784.344238</ele>
        <time>2011-05-23T10:12:38Z</time>
      </trkpt>
      <trkpt lat="43.04944" lon="-0.50838">
        <ele>1783.382812</ele>
        <time>2011-05-23T10:13:00Z</time>
      </trkpt>
      <trkpt lat="43.04949" lon="-0.50843">
        <ele>1784.344238</ele>
        <time>2011-05-23T10:13:13Z</time>
      </trkpt>
      <trkpt lat="43.04952" lon="-0.50851">
        <ele>1786.747314</ele>
        <time>2011-05-23T10:13:24Z</time>
      </trkpt>
      <trkpt lat="43.04957" lon="-0.50858">
        <ele>1787.228027</ele>
        <time>2011-05-23T10:13:44Z</time>
      </trkpt>
      <trkpt lat="43.04962" lon="-0.50862">
        <ele>1788.67041</ele>
        <time>2011-05-23T10:13:59Z</time>
      </trkpt>
      <trkpt lat="43.0496" lon="-0.50862">
        <ele>1788.67041</ele>
        <time>2011-05-23T10:14:28Z</time>
      </trkpt>
      <trkpt lat="43.04963" lon="-0.50864">
        <ele>1787.70874</ele>
        <time>2011-05-23T10:14:41Z</time>
      </trkpt>
      <trkpt lat="43.04961" lon="-0.50863">
        <ele>1787.228027</ele>
        <time>2011-05-23T10:17:44Z</time>
      </trkpt>
      <trkpt lat="43.04962" lon="-0.50862">
        <ele>1788.67041</ele>
        <time>2011-05-23T10:18:41Z</time>
      </trkpt>
      <trkpt lat="43.04962" lon="-0.50863">
        <ele>1787.228027</ele>
        <time>2011-05-23T10:18:56Z</time>
      </trkpt>
      <trkpt lat="43.04962" lon="-0.50862">
        <ele>1786.266846</ele>
        <time>2011-05-23T10:19:12Z</time>
      </trkpt>
      <trkpt lat="43.04962" lon="-0.50862">
        <ele>1788.67041</ele>
        <time>2011-05-23T10:19:14Z</time>
      </trkpt>
    </trkseg>
  </trk>
  <trk>
    <name><![CDATA[ACTIVE LOG 003]]></name>
    <trkseg>
      <trkpt lat="43.04952" lon="-0.50868">
        <ele>1757.908203</ele>
        <time>2011-05-23T10:19:34Z</time>
      </trkpt>
      <trkpt lat="43.04962" lon="-0.50865">
        <ele>1755.023926</ele>
        <time>2011-05-23T10:19:35Z</time>
      </trkpt>
      <trkpt lat="43.04964" lon="-0.50865">
        <ele>1759.350098</ele>
        <time>2011-05-23T10:19:41Z</time>
      </trkpt>
      <trkpt lat="43.04964" lon="-0.50864">
        <ele>1762.7146</ele>
        <time>2011-05-23T10:19:44Z</time>
      </trkpt>
      <trkpt lat="43.04964" lon="-0.50864">
        <ele>1766.079102</ele>
        <time>2011-05-23T10:19:47Z</time>
      </trkpt>
      <trkpt lat="43.04964" lon="-0.50864">
        <ele>1769.443848</ele>
        <time>2011-05-23T10:19:50Z</time>
      </trkpt>
      <trkpt lat="43.04964" lon="-0.50864">
        <ele>1770.885742</ele>
        <time>2011-05-23T10:19:53Z</time>
      </trkpt>
      <trkpt lat="43.04964" lon="-0.50864">
        <ele>1773.769775</ele>
        <time>2011-05-23T10:19:56Z</time>
      </trkpt>
      <trkpt lat="43.04964" lon="-0.50863">
        <ele>1777.134521</ele>
        <time>2011-05-23T10:20:01Z</time>
      </trkpt>
      <trkpt lat="43.04964" lon="-0.50863">
        <ele>1777.134521</ele>
        <time>2011-05-23T10:20:02Z</time>
      </trkpt>
      <trkpt lat="43.04964" lon="-0.50863">
        <ele>1780.499023</ele>
        <time>2011-05-23T10:20:10Z</time>
      </trkpt>
      <trkpt lat="43.04963" lon="-0.50863">
        <ele>1782.421631</ele>
        <time>2011-05-23T10:20:15Z</time>
      </trkpt>
      <trkpt lat="43.04963" lon="-0.50863">
        <ele>1785.786133</ele>
        <time>2011-05-23T10:20:24Z</time>
      </trkpt>
      <trkpt lat="43.04963" lon="-0.50863">
        <ele>1788.189697</ele>
        <time>2011-05-23T10:20:34Z</time>
      </trkpt>
      <trkpt lat="43.04962" lon="-0.50863">
        <ele>1791.554199</ele>
        <time>2011-05-23T10:20:49Z</time>
      </trkpt>
      <trkpt lat="43.04961" lon="-0.50862">
        <ele>1794.437988</ele>
        <time>2011-05-23T10:22:02Z</time>
      </trkpt>
      <trkpt lat="43.04961" lon="-0.50862">
        <ele>1791.554199</ele>
        <time>2011-05-23T10:23:50Z</time>
      </trkpt>
      <trkpt lat="43.04962" lon="-0.50862">
        <ele>1790.112305</ele>
        <time>2011-05-23T10:32:55Z</time>
      </trkpt>
      <trkpt lat="43.04961" lon="-0.50864">
        <ele>1793.476807</ele>
        <time>2011-05-23T10:37:04Z</time>
      </trkpt>
      <trkpt lat="43.0496" lon="-0.50865">
        <ele>1794.437988</ele>
        <time>2011-05-23T10:39:02Z</time>
      </trkpt>
      <trkpt lat="43.0496" lon="-0.50864">
        <ele>1793.95752</ele>
        <time>2011-05-23T10:40:41Z</time>
      </trkpt>
      <trkpt lat="43.0496" lon="-0.50864">
        <ele>1793.95752</ele>
        <time>2011-05-23T10:43:24Z</time>
      </trkpt>
      <trkpt lat="43.0496" lon="-0.50866">
        <ele>1794.918701</ele>
        <time>2011-05-23T10:49:03Z</time>
      </trkpt>
      <trkpt lat="43.04961" lon="-0.50865">
        <ele>1795.880127</ele>
        <time>2011-05-23T10:49:50Z</time>
      </trkpt>
      <trkpt lat="43.04961" lon="-0.50865">
        <ele>1795.880127</ele>
        <time>2011-05-23T10:50:29Z</time>
      </trkpt>
      <trkpt lat="43.04962" lon="-0.50862">
        <ele>1796.36084</ele>
        <time>2011-05-23T10:50:52Z</time>
      </trkpt>
      <trkpt lat="43.04963" lon="-0.50861">
        <ele>1793.95752</ele>
        <time>2011-05-23T10:55:38Z</time>
      </trkpt>
      <trkpt lat="43.04963" lon="-0.50861">
        <ele>1795.399414</ele>
        <time>2011-05-23T10:56:27Z</time>
      </trkpt>
      <trkpt lat="43.04962" lon="-0.50861">
        <ele>1796.841309</ele>
        <time>2011-05-23T10:56:53Z</time>
      </trkpt>
      <trkpt lat="43.04962" lon="-0.50861">
        <ele>1793.476807</ele>
        <time>2011-05-23T10:56:56Z</time>
      </trkpt>
      <trkpt lat="43.04962" lon="-0.5086">
        <ele>1797.322021</ele>
        <time>2011-05-23T10:57:01Z</time>
      </trkpt>
      <trkpt lat="43.04962" lon="-0.5086">
        <ele>1793.476807</ele>
        <time>2011-05-23T10:57:02Z</time>
      </trkpt>
      <trkpt lat="43.04962" lon="-0.5086">
        <ele>1797.322021</ele>
        <time>2011-05-23T10:57:04Z</time>
      </trkpt>
      <trkpt lat="43.04962" lon="-0.5086">
        <ele>1793.95752</ele>
        <time>2011-05-23T10:57:06Z</time>
      </trkpt>
      <trkpt lat="43.04962" lon="-0.5086">
        <ele>1797.802734</ele>
        <time>2011-05-23T10:57:12Z</time>
      </trkpt>
      <trkpt lat="43.04962" lon="-0.5086">
        <ele>1797.802734</ele>
        <time>2011-05-23T10:57:13Z</time>
      </trkpt>
      <trkpt lat="43.04962" lon="-0.5086">
        <ele>1796.36084</ele>
        <time>2011-05-23T10:57:15Z</time>
      </trkpt>
      <trkpt lat="43.04963" lon="-0.50861">
        <ele>1795.880127</ele>
        <time>2011-05-23T10:57:54Z</time>
      </trkpt>
      <trkpt lat="43.04963" lon="-0.50862">
        <ele>1796.36084</ele>
        <time>2011-05-23T10:58:39Z</time>
      </trkpt>
      <trkpt lat="43.04961" lon="-0.50862">
        <ele>1796.36084</ele>
        <time>2011-05-23T10:59:22Z</time>
      </trkpt>
      <trkpt lat="43.04961" lon="-0.50862">
        <ele>1796.841309</ele>
        <time>2011-05-23T10:59:46Z</time>
      </trkpt>
      <trkpt lat="43.0496" lon="-0.50862">
        <ele>1796.36084</ele>
        <time>2011-05-23T11:00:09Z</time>
      </trkpt>
      <trkpt lat="43.04958" lon="-0.50863">
        <ele>1797.322021</ele>
        <time>2011-05-23T11:00:24Z</time>
      </trkpt>
      <trkpt lat="43.04949" lon="-0.50851">
        <ele>1794.918701</ele>
        <time>2011-05-23T11:00:42Z</time>
      </trkpt>
      <trkpt lat="43.04949" lon="-0.50849">
        <ele>1794.918701</ele>
        <time>2011-05-23T11:00:58Z</time>
      </trkpt>
      <trkpt lat="43.04947" lon="-0.50845">
        <ele>1793.476807</ele>
        <time>2011-05-23T11:01:27Z</time>
      </trkpt>
      <trkpt lat="43.04945" lon="-0.50842">
        <ele>1793.476807</ele>
        <time>2011-05-23T11:01:46Z</time>
      </trkpt>
      <trkpt lat="43.0494" lon="-0.50836">
        <ele>1792.034912</ele>
        <time>2011-05-23T11:02:01Z</time>
      </trkpt>
      <trkpt lat="43.04939" lon="-0.50836">
        <ele>1791.073486</ele>
        <time>2011-05-23T11:02:03Z</time>
      </trkpt>
      <trkpt lat="43.04935" lon="-0.50832">
        <ele>1789.631592</ele>
        <time>2011-05-23T11:02:21Z</time>
      </trkpt>
      <trkpt lat="43.0493" lon="-0.50832">
        <ele>1787.70874</ele>
        <time>2011-05-23T11:02:36Z</time>
      </trkpt>
      <trkpt lat="43.04928" lon="-0.50832">
        <ele>1784.344238</ele>
        <time>2011-05-23T11:02:46Z</time>
      </trkpt>
      <trkpt lat="43.04931" lon="-0.50838">
        <ele>1784.344238</ele>
        <time>2011-05-23T11:03:03Z</time>
      </trkpt>
      <trkpt lat="43.0493" lon="-0.50845">
        <ele>1781.940918</ele>
        <time>2011-05-23T11:03:19Z</time>
      </trkpt>
      <trkpt lat="43.04931" lon="-0.50849">
        <ele>1780.018311</ele>
        <time>2011-05-23T11:03:28Z</time>
      </trkpt>
      <trkpt lat="43.04931" lon="-0.50855">
        <ele>1777.134521</ele>
        <time>2011-05-23T11:03:44Z</time>
      </trkpt>
      <trkpt lat="43.04923" lon="-0.50853">
        <ele>1776.173096</ele>
        <time>2011-05-23T11:04:06Z</time>
      </trkpt>
      <trkpt lat="43.04917" lon="-0.50852">
        <ele>1773.289307</ele>
        <time>2011-05-23T11:04:20Z</time>
      </trkpt>
      <trkpt lat="43.04912" lon="-0.5085">
        <ele>1770.405029</ele>
        <time>2011-05-23T11:04:35Z</time>
      </trkpt>
      <trkpt lat="43.04908" lon="-0.50849">
        <ele>1769.443848</ele>
        <time>2011-05-23T11:04:44Z</time>
      </trkpt>
      <trkpt lat="43.04904" lon="-0.50846">
        <ele>1767.520996</ele>
        <time>2011-05-23T11:05:00Z</time>
      </trkpt>
      <trkpt lat="43.04902" lon="-0.50845">
        <ele>1765.11792</ele>
        <time>2011-05-23T11:05:14Z</time>
      </trkpt>
      <trkpt lat="43.04899" lon="-0.50844">
        <ele>1761.753418</ele>
        <time>2011-05-23T11:05:25Z</time>
      </trkpt>
      <trkpt lat="43.04897" lon="-0.50842">
        <ele>1762.7146</ele>
        <time>2011-05-23T11:05:40Z</time>
      </trkpt>
      <trkpt lat="43.04895" lon="-0.50844">
        <ele>1760.311279</ele>
        <time>2011-05-23T11:05:55Z</time>
      </trkpt>
      <trkpt lat="43.04891" lon="-0.50845">
        <ele>1758.388672</ele>
        <time>2011-05-23T11:06:09Z</time>
      </trkpt>
      <trkpt lat="43.04887" lon="-0.50841">
        <ele>1757.908203</ele>
        <time>2011-05-23T11:06:25Z</time>
      </trkpt>
      <trkpt lat="43.04882" lon="-0.5084">
        <ele>1754.543213</ele>
        <time>2011-05-23T11:06:38Z</time>
      </trkpt>
      <trkpt lat="43.04876" lon="-0.50841">
        <ele>1751.659424</ele>
        <time>2011-05-23T11:06:56Z</time>
      </trkpt>
      <trkpt lat="43.04869" lon="-0.50837">
        <ele>1748.294678</ele>
        <time>2011-05-23T11:07:15Z</time>
      </trkpt>
      <trkpt lat="43.04863" lon="-0.50832">
        <ele>1743.968994</ele>
        <time>2011-05-23T11:07:30Z</time>
      </trkpt>
      <trkpt lat="43.04862" lon="-0.50831">
        <ele>1743.968994</ele>
        <time>2011-05-23T11:07:31Z</time>
      </trkpt>
      <trkpt lat="43.04856" lon="-0.50828">
        <ele>1741.565674</ele>
        <time>2011-05-23T11:07:47Z</time>
      </trkpt>
      <trkpt lat="43.04854" lon="-0.50826">
        <ele>1741.565674</ele>
        <time>2011-05-23T11:07:51Z</time>
      </trkpt>
      <trkpt lat="43.04846" lon="-0.50816">
        <ele>1737.720215</ele>
        <time>2011-05-23T11:08:07Z</time>
      </trkpt>
      <trkpt lat="43.04844" lon="-0.50814">
        <ele>1738.200928</ele>
        <time>2011-05-23T11:08:10Z</time>
      </trkpt>
      <trkpt lat="43.04837" lon="-0.50806">
        <ele>1734.836426</ele>
        <time>2011-05-23T11:08:22Z</time>
      </trkpt>
      <trkpt lat="43.04836" lon="-0.50805">
        <ele>1735.316895</ele>
        <time>2011-05-23T11:08:23Z</time>
      </trkpt>
      <trkpt lat="43.04824" lon="-0.50793">
        <ele>1732.433105</ele>
        <time>2011-05-23T11:08:42Z</time>
      </trkpt>
      <trkpt lat="43.0482" lon="-0.50789">
        <ele>1731.47168</ele>
        <time>2011-05-23T11:08:48Z</time>
      </trkpt>
      <trkpt lat="43.04814" lon="-0.50777">
        <ele>1730.510498</ele>
        <time>2011-05-23T11:09:03Z</time>
      </trkpt>
      <trkpt lat="43.04812" lon="-0.50777">
        <ele>1729.068359</ele>
        <time>2011-05-23T11:09:07Z</time>
      </trkpt>
      <trkpt lat="43.048" lon="-0.50766">
        <ele>1726.18457</ele>
        <time>2011-05-23T11:09:26Z</time>
      </trkpt>
      <trkpt lat="43.04794" lon="-0.50753">
        <ele>1723.781006</ele>
        <time>2011-05-23T11:09:42Z</time>
      </trkpt>
      <trkpt lat="43.04781" lon="-0.50738">
        <ele>1723.300537</ele>
        <time>2011-05-23T11:10:01Z</time>
      </trkpt>
      <trkpt lat="43.0477" lon="-0.50726">
        <ele>1721.377686</ele>
        <time>2011-05-23T11:10:17Z</time>
      </trkpt>
      <trkpt lat="43.04757" lon="-0.50704">
        <ele>1719.935791</ele>
        <time>2011-05-23T11:10:38Z</time>
      </trkpt>
      <trkpt lat="43.04743" lon="-0.50684">
        <ele>1717.052002</ele>
        <time>2011-05-23T11:10:58Z</time>
      </trkpt>
      <trkpt lat="43.04728" lon="-0.50662">
        <ele>1715.610107</ele>
        <time>2011-05-23T11:11:19Z</time>
      </trkpt>
      <trkpt lat="43.04725" lon="-0.50659">
        <ele>1714.648682</ele>
        <time>2011-05-23T11:11:22Z</time>
      </trkpt>
      <trkpt lat="43.0471" lon="-0.50631">
        <ele>1712.245361</ele>
        <time>2011-05-23T11:11:46Z</time>
      </trkpt>
      <trkpt lat="43.04703" lon="-0.50619">
        <ele>1710.322754</ele>
        <time>2011-05-23T11:11:57Z</time>
      </trkpt>
      <trkpt lat="43.0469" lon="-0.50592">
        <ele>1708.880859</ele>
        <time>2011-05-23T11:12:18Z</time>
      </trkpt>
      <trkpt lat="43.04684" lon="-0.50575">
        <ele>1707.438721</ele>
        <time>2011-05-23T11:12:32Z</time>
      </trkpt>
      <trkpt lat="43.04675" lon="-0.50549">
        <ele>1705.516113</ele>
        <time>2011-05-23T11:12:52Z</time>
      </trkpt>
      <trkpt lat="43.0466" lon="-0.50522">
        <ele>1704.554688</ele>
        <time>2011-05-23T11:13:14Z</time>
      </trkpt>
      <trkpt lat="43.0465" lon="-0.50498">
        <ele>1702.151367</ele>
        <time>2011-05-23T11:13:34Z</time>
      </trkpt>
      <trkpt lat="43.04641" lon="-0.50479">
        <ele>1700.229004</ele>
        <time>2011-05-23T11:13:51Z</time>
      </trkpt>
      <trkpt lat="43.04626" lon="-0.50461">
        <ele>1698.306152</ele>
        <time>2011-05-23T11:14:10Z</time>
      </trkpt>
      <trkpt lat="43.04613" lon="-0.50445">
        <ele>1694.460938</ele>
        <time>2011-05-23T11:14:28Z</time>
      </trkpt>
      <trkpt lat="43.04611" lon="-0.50444">
        <ele>1694.460938</ele>
        <time>2011-05-23T11:14:30Z</time>
      </trkpt>
      <trkpt lat="43.04595" lon="-0.50431">
        <ele>1693.499756</ele>
        <time>2011-05-23T11:14:48Z</time>
      </trkpt>
      <trkpt lat="43.04578" lon="-0.50418">
        <ele>1691.576904</ele>
        <time>2011-05-23T11:15:06Z</time>
      </trkpt>
      <trkpt lat="43.04566" lon="-0.50409">
        <ele>1688.212402</ele>
        <time>2011-05-23T11:15:21Z</time>
      </trkpt>
      <trkpt lat="43.04565" lon="-0.50408">
        <ele>1688.693115</ele>
        <time>2011-05-23T11:15:22Z</time>
      </trkpt>
      <trkpt lat="43.04563" lon="-0.50408">
        <ele>1688.212402</ele>
        <time>2011-05-23T11:15:24Z</time>
      </trkpt>
      <trkpt lat="43.04544" lon="-0.50395">
        <ele>1686.770264</ele>
        <time>2011-05-23T11:15:45Z</time>
      </trkpt>
      <trkpt lat="43.04531" lon="-0.50383">
        <ele>1683.886475</ele>
        <time>2011-05-23T11:16:01Z</time>
      </trkpt>
      <trkpt lat="43.04528" lon="-0.50379">
        <ele>1683.886475</ele>
        <time>2011-05-23T11:16:05Z</time>
      </trkpt>
      <trkpt lat="43.04526" lon="-0.50374">
        <ele>1683.405762</ele>
        <time>2011-05-23T11:16:11Z</time>
      </trkpt>
      <trkpt lat="43.04524" lon="-0.50374">
        <ele>1682.44458</ele>
        <time>2011-05-23T11:16:13Z</time>
      </trkpt>
      <trkpt lat="43.04524" lon="-0.50374">
        <ele>1682.44458</ele>
        <time>2011-05-23T11:16:14Z</time>
      </trkpt>
      <trkpt lat="43.04519" lon="-0.50372">
        <ele>1681.002686</ele>
        <time>2011-05-23T11:16:19Z</time>
      </trkpt>
      <trkpt lat="43.04508" lon="-0.50362">
        <ele>1677.637939</ele>
        <time>2011-05-23T11:16:31Z</time>
      </trkpt>
      <trkpt lat="43.045" lon="-0.50354">
        <ele>1676.196045</ele>
        <time>2011-05-23T11:16:46Z</time>
      </trkpt>
      <trkpt lat="43.04485" lon="-0.50342">
        <ele>1673.312012</ele>
        <time>2011-05-23T11:17:00Z</time>
      </trkpt>
      <trkpt lat="43.0447" lon="-0.50328">
        <ele>1670.908691</ele>
        <time>2011-05-23T11:17:18Z</time>
      </trkpt>
      <trkpt lat="43.04464" lon="-0.50321">
        <ele>1670.908691</ele>
        <time>2011-05-23T11:17:26Z</time>
      </trkpt>
      <trkpt lat="43.04457" lon="-0.50315">
        <ele>1669.466797</ele>
        <time>2011-05-23T11:17:35Z</time>
      </trkpt>
      <trkpt lat="43.04452" lon="-0.5031">
        <ele>1668.505371</ele>
        <time>2011-05-23T11:17:42Z</time>
      </trkpt>
      <trkpt lat="43.04444" lon="-0.5029">
        <ele>1666.582764</ele>
        <time>2011-05-23T11:17:59Z</time>
      </trkpt>
      <trkpt lat="43.04443" lon="-0.50286">
        <ele>1666.582764</ele>
        <time>2011-05-23T11:18:02Z</time>
      </trkpt>
      <trkpt lat="43.04438" lon="-0.50277">
        <ele>1665.140869</ele>
        <time>2011-05-23T11:18:10Z</time>
      </trkpt>
      <trkpt lat="43.04435" lon="-0.50273">
        <ele>1665.140869</ele>
        <time>2011-05-23T11:18:14Z</time>
      </trkpt>
      <trkpt lat="43.04437" lon="-0.50253">
        <ele>1662.737549</ele>
        <time>2011-05-23T11:18:31Z</time>
      </trkpt>
      <trkpt lat="43.04439" lon="-0.50242">
        <ele>1659.372803</ele>
        <time>2011-05-23T11:18:45Z</time>
      </trkpt>
      <trkpt lat="43.04438" lon="-0.50225">
        <ele>1656.008057</ele>
        <time>2011-05-23T11:19:02Z</time>
      </trkpt>
      <trkpt lat="43.04439" lon="-0.50214">
        <ele>1653.124268</ele>
        <time>2011-05-23T11:19:16Z</time>
      </trkpt>
      <trkpt lat="43.04438" lon="-0.50205">
        <ele>1649.759766</ele>
        <time>2011-05-23T11:19:31Z</time>
      </trkpt>
      <trkpt lat="43.04435" lon="-0.50198">
        <ele>1646.395264</ele>
        <time>2011-05-23T11:19:45Z</time>
      </trkpt>
      <trkpt lat="43.04434" lon="-0.50182">
        <ele>1644.953125</ele>
        <time>2011-05-23T11:20:00Z</time>
      </trkpt>
      <trkpt lat="43.04439" lon="-0.5016">
        <ele>1641.588379</ele>
        <time>2011-05-23T11:20:19Z</time>
      </trkpt>
      <trkpt lat="43.04442" lon="-0.50143">
        <ele>1638.223877</ele>
        <time>2011-05-23T11:20:38Z</time>
      </trkpt>
      <trkpt lat="43.04443" lon="-0.50142">
        <ele>1638.223877</ele>
        <time>2011-05-23T11:20:39Z</time>
      </trkpt>
      <trkpt lat="43.04446" lon="-0.50137">
        <ele>1638.223877</ele>
        <time>2011-05-23T11:20:45Z</time>
      </trkpt>
      <trkpt lat="43.0445" lon="-0.50125">
        <ele>1636.30127</ele>
        <time>2011-05-23T11:20:56Z</time>
      </trkpt>
      <trkpt lat="43.04455" lon="-0.50108">
        <ele>1632.936523</ele>
        <time>2011-05-23T11:21:10Z</time>
      </trkpt>
      <trkpt lat="43.04455" lon="-0.50107">
        <ele>1632.936523</ele>
        <time>2011-05-23T11:21:14Z</time>
      </trkpt>
      <trkpt lat="43.04456" lon="-0.501">
        <ele>1631.975342</ele>
        <time>2011-05-23T11:21:23Z</time>
      </trkpt>
      <trkpt lat="43.0445" lon="-0.50098">
        <ele>1630.533447</ele>
        <time>2011-05-23T11:21:41Z</time>
      </trkpt>
      <trkpt lat="43.0444" lon="-0.50099">
        <ele>1627.168701</ele>
        <time>2011-05-23T11:21:53Z</time>
      </trkpt>
      <trkpt lat="43.04432" lon="-0.50099">
        <ele>1624.284668</ele>
        <time>2011-05-23T11:22:07Z</time>
      </trkpt>
      <trkpt lat="43.04426" lon="-0.50089">
        <ele>1620.439453</ele>
        <time>2011-05-23T11:22:21Z</time>
      </trkpt>
      <trkpt lat="43.04421" lon="-0.50074">
        <ele>1617.074951</ele>
        <time>2011-05-23T11:22:39Z</time>
      </trkpt>
      <trkpt lat="43.04419" lon="-0.50064">
        <ele>1614.190918</ele>
        <time>2011-05-23T11:22:56Z</time>
      </trkpt>
      <trkpt lat="43.04417" lon="-0.50054">
        <ele>1610.826172</ele>
        <time>2011-05-23T11:23:10Z</time>
      </trkpt>
      <trkpt lat="43.04415" lon="-0.50038">
        <ele>1607.46167</ele>
        <time>2011-05-23T11:23:29Z</time>
      </trkpt>
      <trkpt lat="43.04416" lon="-0.50031">
        <ele>1606.019531</ele>
        <time>2011-05-23T11:23:36Z</time>
      </trkpt>
      <trkpt lat="43.04416" lon="-0.50028">
        <ele>1606.019531</ele>
        <time>2011-05-23T11:23:38Z</time>
      </trkpt>
      <trkpt lat="43.04422" lon="-0.50009">
        <ele>1603.135742</ele>
        <time>2011-05-23T11:23:57Z</time>
      </trkpt>
      <trkpt lat="43.04425" lon="-0.49994">
        <ele>1599.290527</ele>
        <time>2011-05-23T11:24:14Z</time>
      </trkpt>
      <trkpt lat="43.04425" lon="-0.49992">
        <ele>1599.290527</ele>
        <time>2011-05-23T11:24:15Z</time>
      </trkpt>
      <trkpt lat="43.0443" lon="-0.49962">
        <ele>1596.887207</ele>
        <time>2011-05-23T11:24:37Z</time>
      </trkpt>
      <trkpt lat="43.04432" lon="-0.4994">
        <ele>1593.522461</ele>
        <time>2011-05-23T11:24:54Z</time>
      </trkpt>
      <trkpt lat="43.04438" lon="-0.49917">
        <ele>1593.041748</ele>
        <time>2011-05-23T11:25:13Z</time>
      </trkpt>
      <trkpt lat="43.0444" lon="-0.49903">
        <ele>1590.157959</ele>
        <time>2011-05-23T11:25:23Z</time>
      </trkpt>
      <trkpt lat="43.04443" lon="-0.49878">
        <ele>1588.235352</ele>
        <time>2011-05-23T11:25:41Z</time>
      </trkpt>
      <trkpt lat="43.0445" lon="-0.49846">
        <ele>1585.832031</ele>
        <time>2011-05-23T11:26:02Z</time>
      </trkpt>
      <trkpt lat="43.04451" lon="-0.49841">
        <ele>1584.390137</ele>
        <time>2011-05-23T11:26:05Z</time>
      </trkpt>
      <trkpt lat="43.04459" lon="-0.49822">
        <ele>1581.506104</ele>
        <time>2011-05-23T11:26:22Z</time>
      </trkpt>
      <trkpt lat="43.04466" lon="-0.49811">
        <ele>1580.064209</ele>
        <time>2011-05-23T11:26:36Z</time>
      </trkpt>
      <trkpt lat="43.04468" lon="-0.498">
        <ele>1577.180176</ele>
        <time>2011-05-23T11:26:51Z</time>
      </trkpt>
      <trkpt lat="43.04466" lon="-0.49787">
        <ele>1573.81543</ele>
        <time>2011-05-23T11:27:05Z</time>
      </trkpt>
      <trkpt lat="43.04467" lon="-0.49781">
        <ele>1572.854248</ele>
        <time>2011-05-23T11:27:10Z</time>
      </trkpt>
      <trkpt lat="43.04469" lon="-0.49771">
        <ele>1569.489746</ele>
        <time>2011-05-23T11:27:19Z</time>
      </trkpt>
      <trkpt lat="43.04469" lon="-0.49752">
        <ele>1568.047607</ele>
        <time>2011-05-23T11:27:37Z</time>
      </trkpt>
      <trkpt lat="43.04467" lon="-0.49733">
        <ele>1564.683105</ele>
        <time>2011-05-23T11:27:53Z</time>
      </trkpt>
      <trkpt lat="43.04476" lon="-0.49707">
        <ele>1562.760254</ele>
        <time>2011-05-23T11:28:13Z</time>
      </trkpt>
      <trkpt lat="43.04477" lon="-0.49704">
        <ele>1563.240967</ele>
        <time>2011-05-23T11:28:15Z</time>
      </trkpt>
      <trkpt lat="43.04479" lon="-0.4969">
        <ele>1560.356934</ele>
        <time>2011-05-23T11:28:28Z</time>
      </trkpt>
      <trkpt lat="43.04483" lon="-0.49669">
        <ele>1559.876221</ele>
        <time>2011-05-23T11:28:43Z</time>
      </trkpt>
      <trkpt lat="43.04485" lon="-0.49646">
        <ele>1558.434326</ele>
        <time>2011-05-23T11:29:02Z</time>
      </trkpt>
      <trkpt lat="43.04484" lon="-0.49642">
        <ele>1556.511719</ele>
        <time>2011-05-23T11:29:06Z</time>
      </trkpt>
      <trkpt lat="43.04484" lon="-0.49633">
        <ele>1553.62793</ele>
        <time>2011-05-23T11:29:17Z</time>
      </trkpt>
      <trkpt lat="43.04481" lon="-0.49623">
        <ele>1551.705322</ele>
        <time>2011-05-23T11:29:28Z</time>
      </trkpt>
      <trkpt lat="43.04478" lon="-0.49615">
        <ele>1548.340576</ele>
        <time>2011-05-23T11:29:39Z</time>
      </trkpt>
      <trkpt lat="43.04477" lon="-0.4961">
        <ele>1546.898438</ele>
        <time>2011-05-23T11:29:56Z</time>
      </trkpt>
      <trkpt lat="43.0448" lon="-0.49603">
        <ele>1543.533936</ele>
        <time>2011-05-23T11:30:12Z</time>
      </trkpt>
      <trkpt lat="43.04483" lon="-0.49594">
        <ele>1541.611328</ele>
        <time>2011-05-23T11:30:27Z</time>
      </trkpt>
      <trkpt lat="43.04485" lon="-0.49582">
        <ele>1538.727539</ele>
        <time>2011-05-23T11:30:43Z</time>
      </trkpt>
      <trkpt lat="43.04483" lon="-0.49577">
        <ele>1536.804688</ele>
        <time>2011-05-23T11:30:50Z</time>
      </trkpt>
      <trkpt lat="43.0448" lon="-0.49563">
        <ele>1534.882324</ele>
        <time>2011-05-23T11:31:10Z</time>
      </trkpt>
      <trkpt lat="43.04476" lon="-0.49558">
        <ele>1531.517334</ele>
        <time>2011-05-23T11:31:22Z</time>
      </trkpt>
      <trkpt lat="43.04476" lon="-0.49556">
        <ele>1530.556152</ele>
        <time>2011-05-23T11:31:24Z</time>
      </trkpt>
      <trkpt lat="43.04473" lon="-0.49547">
        <ele>1527.19165</ele>
        <time>2011-05-23T11:31:39Z</time>
      </trkpt>
      <trkpt lat="43.04469" lon="-0.49535">
        <ele>1524.307617</ele>
        <time>2011-05-23T11:31:54Z</time>
      </trkpt>
      <trkpt lat="43.04468" lon="-0.49523">
        <ele>1520.943115</ele>
        <time>2011-05-23T11:32:09Z</time>
      </trkpt>
      <trkpt lat="43.04466" lon="-0.49516">
        <ele>1517.578369</ele>
        <time>2011-05-23T11:32:20Z</time>
      </trkpt>
      <trkpt lat="43.04465" lon="-0.49508">
        <ele>1514.694336</ele>
        <time>2011-05-23T11:32:32Z</time>
      </trkpt>
      <trkpt lat="43.04461" lon="-0.49503">
        <ele>1513.252441</ele>
        <time>2011-05-23T11:32:42Z</time>
      </trkpt>
      <trkpt lat="43.04458" lon="-0.49495">
        <ele>1509.887695</ele>
        <time>2011-05-23T11:32:54Z</time>
      </trkpt>
      <trkpt lat="43.04461" lon="-0.49485">
        <ele>1507.003906</ele>
        <time>2011-05-23T11:33:08Z</time>
      </trkpt>
      <trkpt lat="43.04462" lon="-0.49484">
        <ele>1506.523193</ele>
        <time>2011-05-23T11:33:09Z</time>
      </trkpt>
      <trkpt lat="43.04464" lon="-0.49474">
        <ele>1503.639404</ele>
        <time>2011-05-23T11:33:23Z</time>
      </trkpt>
      <trkpt lat="43.04466" lon="-0.49457">
        <ele>1500.274902</ele>
        <time>2011-05-23T11:33:40Z</time>
      </trkpt>
      <trkpt lat="43.04468" lon="-0.49439">
        <ele>1497.390625</ele>
        <time>2011-05-23T11:33:56Z</time>
      </trkpt>
      <trkpt lat="43.04471" lon="-0.49421">
        <ele>1494.506592</ele>
        <time>2011-05-23T11:34:15Z</time>
      </trkpt>
      <trkpt lat="43.04473" lon="-0.49407">
        <ele>1491.14209</ele>
        <time>2011-05-23T11:34:30Z</time>
      </trkpt>
      <trkpt lat="43.04473" lon="-0.49406">
        <ele>1491.14209</ele>
        <time>2011-05-23T11:34:31Z</time>
      </trkpt>
      <trkpt lat="43.04474" lon="-0.49395">
        <ele>1488.258301</ele>
        <time>2011-05-23T11:34:42Z</time>
      </trkpt>
      <trkpt lat="43.04473" lon="-0.49391">
        <ele>1486.816162</ele>
        <time>2011-05-23T11:34:47Z</time>
      </trkpt>
      <trkpt lat="43.04472" lon="-0.49388">
        <ele>1485.85498</ele>
        <time>2011-05-23T11:34:51Z</time>
      </trkpt>
      <trkpt lat="43.04473" lon="-0.49378">
        <ele>1482.490234</ele>
        <time>2011-05-23T11:35:02Z</time>
      </trkpt>
      <trkpt lat="43.04473" lon="-0.49377">
        <ele>1482.490234</ele>
        <time>2011-05-23T11:35:03Z</time>
      </trkpt>
      <trkpt lat="43.04471" lon="-0.49365">
        <ele>1479.125488</ele>
        <time>2011-05-23T11:35:16Z</time>
      </trkpt>
      <trkpt lat="43.04464" lon="-0.49359">
        <ele>1477.683594</ele>
        <time>2011-05-23T11:35:35Z</time>
      </trkpt>
      <trkpt lat="43.04457" lon="-0.49347">
        <ele>1474.319092</ele>
        <time>2011-05-23T11:36:00Z</time>
      </trkpt>
      <trkpt lat="43.04456" lon="-0.49345">
        <ele>1473.35791</ele>
        <time>2011-05-23T11:36:02Z</time>
      </trkpt>
      <trkpt lat="43.04456" lon="-0.49338">
        <ele>1470.473877</ele>
        <time>2011-05-23T11:36:08Z</time>
      </trkpt>
      <trkpt lat="43.04456" lon="-0.49315">
        <ele>1467.5896</ele>
        <time>2011-05-23T11:36:29Z</time>
      </trkpt>
      <trkpt lat="43.04455" lon="-0.49302">
        <ele>1463.744385</ele>
        <time>2011-05-23T11:36:41Z</time>
      </trkpt>
      <trkpt lat="43.04454" lon="-0.49283">
        <ele>1460.379883</ele>
        <time>2011-05-23T11:36:56Z</time>
      </trkpt>
      <trkpt lat="43.04454" lon="-0.49273">
        <ele>1457.015381</ele>
        <time>2011-05-23T11:37:09Z</time>
      </trkpt>
      <trkpt lat="43.04453" lon="-0.49266">
        <ele>1456.053955</ele>
        <time>2011-05-23T11:37:15Z</time>
      </trkpt>
      <trkpt lat="43.04449" lon="-0.49251">
        <ele>1452.689453</ele>
        <time>2011-05-23T11:37:31Z</time>
      </trkpt>
      <trkpt lat="43.04443" lon="-0.49235">
        <ele>1448.843994</ele>
        <time>2011-05-23T11:37:47Z</time>
      </trkpt>
      <trkpt lat="43.04445" lon="-0.49219">
        <ele>1445.479492</ele>
        <time>2011-05-23T11:38:02Z</time>
      </trkpt>
      <trkpt lat="43.04445" lon="-0.49207">
        <ele>1442.11499</ele>
        <time>2011-05-23T11:38:15Z</time>
      </trkpt>
      <trkpt lat="43.04446" lon="-0.49197">
        <ele>1439.71167</ele>
        <time>2011-05-23T11:38:25Z</time>
      </trkpt>
      <trkpt lat="43.04448" lon="-0.49192">
        <ele>1437.789062</ele>
        <time>2011-05-23T11:38:39Z</time>
      </trkpt>
      <trkpt lat="43.04447" lon="-0.49178">
        <ele>1435.385498</ele>
        <time>2011-05-23T11:38:58Z</time>
      </trkpt>
      <trkpt lat="43.04446" lon="-0.49165">
        <ele>1431.540283</ele>
        <time>2011-05-23T11:39:09Z</time>
      </trkpt>
      <trkpt lat="43.04445" lon="-0.49151">
        <ele>1428.656494</ele>
        <time>2011-05-23T11:39:27Z</time>
      </trkpt>
      <trkpt lat="43.04438" lon="-0.49161">
        <ele>1428.175781</ele>
        <time>2011-05-23T11:39:55Z</time>
      </trkpt>
      <trkpt lat="43.04437" lon="-0.49146">
        <ele>1425.291748</ele>
        <time>2011-05-23T11:40:10Z</time>
      </trkpt>
      <trkpt lat="43.04437" lon="-0.49142">
        <ele>1423.849854</ele>
        <time>2011-05-23T11:40:14Z</time>
      </trkpt>
      <trkpt lat="43.04436" lon="-0.49132">
        <ele>1420.966064</ele>
        <time>2011-05-23T11:40:24Z</time>
      </trkpt>
      <trkpt lat="43.04442" lon="-0.49114">
        <ele>1417.601074</ele>
        <time>2011-05-23T11:40:40Z</time>
      </trkpt>
      <trkpt lat="43.04451" lon="-0.49105">
        <ele>1416.15918</ele>
        <time>2011-05-23T11:40:56Z</time>
      </trkpt>
      <trkpt lat="43.04454" lon="-0.49101">
        <ele>1414.236572</ele>
        <time>2011-05-23T11:41:08Z</time>
      </trkpt>
      <trkpt lat="43.04457" lon="-0.49092">
        <ele>1411.352783</ele>
        <time>2011-05-23T11:41:25Z</time>
      </trkpt>
      <trkpt lat="43.04459" lon="-0.49081">
        <ele>1408.46875</ele>
        <time>2011-05-23T11:41:40Z</time>
      </trkpt>
      <trkpt lat="43.04456" lon="-0.49078">
        <ele>1407.026855</ele>
        <time>2011-05-23T11:41:57Z</time>
      </trkpt>
      <trkpt lat="43.04459" lon="-0.49073">
        <ele>1406.06543</ele>
        <time>2011-05-23T11:42:29Z</time>
      </trkpt>
      <trkpt lat="43.0446" lon="-0.49065">
        <ele>1402.700684</ele>
        <time>2011-05-23T11:42:40Z</time>
      </trkpt>
      <trkpt lat="43.0446" lon="-0.49056">
        <ele>1399.816895</ele>
        <time>2011-05-23T11:42:56Z</time>
      </trkpt>
      <trkpt lat="43.04464" lon="-0.49045">
        <ele>1397.894287</ele>
        <time>2011-05-23T11:43:08Z</time>
      </trkpt>
      <trkpt lat="43.04473" lon="-0.49026">
        <ele>1395.010254</ele>
        <time>2011-05-23T11:43:27Z</time>
      </trkpt>
      <trkpt lat="43.04474" lon="-0.49014">
        <ele>1392.126465</ele>
        <time>2011-05-23T11:43:39Z</time>
      </trkpt>
      <trkpt lat="43.04474" lon="-0.48992">
        <ele>1389.242432</ele>
        <time>2011-05-23T11:43:59Z</time>
      </trkpt>
      <trkpt lat="43.04474" lon="-0.48984">
        <ele>1388.28125</ele>
        <time>2011-05-23T11:44:05Z</time>
      </trkpt>
      <trkpt lat="43.04472" lon="-0.48963">
        <ele>1384.435791</ele>
        <time>2011-05-23T11:44:22Z</time>
      </trkpt>
      <trkpt lat="43.04471" lon="-0.48944">
        <ele>1381.551758</ele>
        <time>2011-05-23T11:44:39Z</time>
      </trkpt>
      <trkpt lat="43.04471" lon="-0.48929">
        <ele>1378.187256</ele>
        <time>2011-05-23T11:44:52Z</time>
      </trkpt>
      <trkpt lat="43.04467" lon="-0.489">
        <ele>1377.226074</ele>
        <time>2011-05-23T11:45:12Z</time>
      </trkpt>
      <trkpt lat="43.04467" lon="-0.48876">
        <ele>1374.822754</ele>
        <time>2011-05-23T11:45:29Z</time>
      </trkpt>
      <trkpt lat="43.0446" lon="-0.48839">
        <ele>1374.822754</ele>
        <time>2011-05-23T11:45:54Z</time>
      </trkpt>
      <trkpt lat="43.04457" lon="-0.48829">
        <ele>1372.900146</ele>
        <time>2011-05-23T11:46:04Z</time>
      </trkpt>
      <trkpt lat="43.04459" lon="-0.48814">
        <ele>1369.5354</ele>
        <time>2011-05-23T11:46:17Z</time>
      </trkpt>
      <trkpt lat="43.04462" lon="-0.48807">
        <ele>1368.093262</ele>
        <time>2011-05-23T11:46:36Z</time>
      </trkpt>
      <trkpt lat="43.04463" lon="-0.48794">
        <ele>1365.209473</ele>
        <time>2011-05-23T11:46:49Z</time>
      </trkpt>
      <trkpt lat="43.04462" lon="-0.48784">
        <ele>1363.767334</ele>
        <time>2011-05-23T11:47:00Z</time>
      </trkpt>
      <trkpt lat="43.04463" lon="-0.48777">
        <ele>1362.325439</ele>
        <time>2011-05-23T11:47:06Z</time>
      </trkpt>
      <trkpt lat="43.04468" lon="-0.48756">
        <ele>1359.44165</ele>
        <time>2011-05-23T11:47:24Z</time>
      </trkpt>
      <trkpt lat="43.04467" lon="-0.4874">
        <ele>1355.596191</ele>
        <time>2011-05-23T11:47:40Z</time>
      </trkpt>
      <trkpt lat="43.04467" lon="-0.48722">
        <ele>1351.750977</ele>
        <time>2011-05-23T11:47:56Z</time>
      </trkpt>
      <trkpt lat="43.04466" lon="-0.48709">
        <ele>1348.38623</ele>
        <time>2011-05-23T11:48:08Z</time>
      </trkpt>
      <trkpt lat="43.04467" lon="-0.48686">
        <ele>1345.983154</ele>
        <time>2011-05-23T11:48:26Z</time>
      </trkpt>
      <trkpt lat="43.04467" lon="-0.48673">
        <ele>1343.099121</ele>
        <time>2011-05-23T11:48:38Z</time>
      </trkpt>
      <trkpt lat="43.04466" lon="-0.48656">
        <ele>1340.215332</ele>
        <time>2011-05-23T11:48:52Z</time>
      </trkpt>
      <trkpt lat="43.04462" lon="-0.48645">
        <ele>1337.331055</ele>
        <time>2011-05-23T11:49:03Z</time>
      </trkpt>
      <trkpt lat="43.0446" lon="-0.48628">
        <ele>1334.927979</ele>
        <time>2011-05-23T11:49:19Z</time>
      </trkpt>
      <trkpt lat="43.0446" lon="-0.48622">
        <ele>1332.043945</ele>
        <time>2011-05-23T11:49:27Z</time>
      </trkpt>
      <trkpt lat="43.0446" lon="-0.4862">
        <ele>1331.082764</ele>
        <time>2011-05-23T11:49:29Z</time>
      </trkpt>
      <trkpt lat="43.04457" lon="-0.48609">
        <ele>1328.19873</ele>
        <time>2011-05-23T11:49:42Z</time>
      </trkpt>
      <trkpt lat="43.04456" lon="-0.48585">
        <ele>1325.79541</ele>
        <time>2011-05-23T11:50:00Z</time>
      </trkpt>
      <trkpt lat="43.04457" lon="-0.48581">
        <ele>1326.276123</ele>
        <time>2011-05-23T11:50:04Z</time>
      </trkpt>
      <trkpt lat="43.04457" lon="-0.48576">
        <ele>1326.276123</ele>
        <time>2011-05-23T11:50:08Z</time>
      </trkpt>
      <trkpt lat="43.04457" lon="-0.48553">
        <ele>1325.79541</ele>
        <time>2011-05-23T11:50:26Z</time>
      </trkpt>
      <trkpt lat="43.04456" lon="-0.4855">
        <ele>1325.79541</ele>
        <time>2011-05-23T11:50:39Z</time>
      </trkpt>
      <trkpt lat="43.04456" lon="-0.4855">
        <ele>1324.353516</ele>
        <time>2011-05-23T11:51:19Z</time>
      </trkpt>
      <trkpt lat="43.04459" lon="-0.48549">
        <ele>1324.353516</ele>
        <time>2011-05-23T11:51:26Z</time>
      </trkpt>
      <trkpt lat="43.04469" lon="-0.48521">
        <ele>1323.39209</ele>
        <time>2011-05-23T11:51:45Z</time>
      </trkpt>
      <trkpt lat="43.04479" lon="-0.48482">
        <ele>1320.508057</ele>
        <time>2011-05-23T11:52:09Z</time>
      </trkpt>
      <trkpt lat="43.04478" lon="-0.48467">
        <ele>1317.624023</ele>
        <time>2011-05-23T11:52:18Z</time>
      </trkpt>
      <trkpt lat="43.04476" lon="-0.48426">
        <ele>1316.182129</ele>
        <time>2011-05-23T11:52:41Z</time>
      </trkpt>
      <trkpt lat="43.04476" lon="-0.48386">
        <ele>1313.778809</ele>
        <time>2011-05-23T11:53:03Z</time>
      </trkpt>
      <trkpt lat="43.04486" lon="-0.48356">
        <ele>1310.89502</ele>
        <time>2011-05-23T11:53:23Z</time>
      </trkpt>
      <trkpt lat="43.04498" lon="-0.48325">
        <ele>1308.491699</ele>
        <time>2011-05-23T11:53:44Z</time>
      </trkpt>
      <trkpt lat="43.04505" lon="-0.48299">
        <ele>1305.126953</ele>
        <time>2011-05-23T11:54:02Z</time>
      </trkpt>
      <trkpt lat="43.04502" lon="-0.48268">
        <ele>1302.24292</ele>
        <time>2011-05-23T11:54:23Z</time>
      </trkpt>
      <trkpt lat="43.04488" lon="-0.48253">
        <ele>1299.359131</ele>
        <time>2011-05-23T11:54:38Z</time>
      </trkpt>
      <trkpt lat="43.0449" lon="-0.48236">
        <ele>1297.436523</ele>
        <time>2011-05-23T11:54:55Z</time>
      </trkpt>
      <trkpt lat="43.0449" lon="-0.48233">
        <ele>1297.436523</ele>
        <time>2011-05-23T11:54:59Z</time>
      </trkpt>
      <trkpt lat="43.04503" lon="-0.48207">
        <ele>1294.55249</ele>
        <time>2011-05-23T11:55:18Z</time>
      </trkpt>
      <trkpt lat="43.04507" lon="-0.48198">
        <ele>1293.591309</ele>
        <time>2011-05-23T11:55:37Z</time>
      </trkpt>
      <trkpt lat="43.0451" lon="-0.48183">
        <ele>1292.630127</ele>
        <time>2011-05-23T11:55:53Z</time>
      </trkpt>
      <trkpt lat="43.04507" lon="-0.48165">
        <ele>1289.265137</ele>
        <time>2011-05-23T11:56:08Z</time>
      </trkpt>
      <trkpt lat="43.04507" lon="-0.48164">
        <ele>1289.265137</ele>
        <time>2011-05-23T11:56:09Z</time>
      </trkpt>
      <trkpt lat="43.04506" lon="-0.48164">
        <ele>1288.784668</ele>
        <time>2011-05-23T11:56:10Z</time>
      </trkpt>
      <trkpt lat="43.04503" lon="-0.48161">
        <ele>1288.303955</ele>
        <time>2011-05-23T11:56:14Z</time>
      </trkpt>
      <trkpt lat="43.04499" lon="-0.48154">
        <ele>1285.900635</ele>
        <time>2011-05-23T11:56:28Z</time>
      </trkpt>
      <trkpt lat="43.04501" lon="-0.48148">
        <ele>1284.45874</ele>
        <time>2011-05-23T11:56:34Z</time>
      </trkpt>
      <trkpt lat="43.045" lon="-0.48139">
        <ele>1283.016602</ele>
        <time>2011-05-23T11:56:42Z</time>
      </trkpt>
      <trkpt lat="43.04496" lon="-0.4812">
        <ele>1281.094238</ele>
        <time>2011-05-23T11:56:57Z</time>
      </trkpt>
      <trkpt lat="43.04499" lon="-0.48105">
        <ele>1279.171387</ele>
        <time>2011-05-23T11:57:14Z</time>
      </trkpt>
      <trkpt lat="43.04497" lon="-0.48091">
        <ele>1275.806641</ele>
        <time>2011-05-23T11:57:27Z</time>
      </trkpt>
      <trkpt lat="43.04497" lon="-0.48084">
        <ele>1274.845459</ele>
        <time>2011-05-23T11:57:35Z</time>
      </trkpt>
      <trkpt lat="43.04486" lon="-0.48084">
        <ele>1273.403564</ele>
        <time>2011-05-23T11:57:52Z</time>
      </trkpt>
      <trkpt lat="43.04488" lon="-0.48072">
        <ele>1270.519531</ele>
        <time>2011-05-23T11:58:04Z</time>
      </trkpt>
      <trkpt lat="43.04488" lon="-0.48071">
        <ele>1271.000244</ele>
        <time>2011-05-23T11:58:05Z</time>
      </trkpt>
      <trkpt lat="43.04487" lon="-0.48061">
        <ele>1269.55835</ele>
        <time>2011-05-23T11:58:14Z</time>
      </trkpt>
      <trkpt lat="43.04483" lon="-0.48055">
        <ele>1268.596924</ele>
        <time>2011-05-23T11:58:33Z</time>
      </trkpt>
      <trkpt lat="43.04485" lon="-0.4806">
        <ele>1269.077637</ele>
        <time>2011-05-23T11:58:39Z</time>
      </trkpt>
      <trkpt lat="43.04486" lon="-0.4808">
        <ele>1271.480713</ele>
        <time>2011-05-23T11:58:56Z</time>
      </trkpt>
      <trkpt lat="43.04483" lon="-0.48086">
        <ele>1273.403564</ele>
        <time>2011-05-23T11:59:02Z</time>
      </trkpt>
      <trkpt lat="43.0446" lon="-0.48096">
        <ele>1273.403564</ele>
        <time>2011-05-23T11:59:22Z</time>
      </trkpt>
      <trkpt lat="43.04443" lon="-0.48108">
        <ele>1270.038818</ele>
        <time>2011-05-23T11:59:40Z</time>
      </trkpt>
      <trkpt lat="43.04424" lon="-0.48125">
        <ele>1266.674316</ele>
        <time>2011-05-23T12:00:00Z</time>
      </trkpt>
      <trkpt lat="43.04405" lon="-0.48136">
        <ele>1264.751709</ele>
        <time>2011-05-23T12:00:19Z</time>
      </trkpt>
      <trkpt lat="43.04404" lon="-0.48126">
        <ele>1261.86792</ele>
        <time>2011-05-23T12:00:34Z</time>
      </trkpt>
      <trkpt lat="43.04409" lon="-0.48115">
        <ele>1258.983643</ele>
        <time>2011-05-23T12:00:48Z</time>
      </trkpt>
      <trkpt lat="43.04414" lon="-0.48106">
        <ele>1255.619141</ele>
        <time>2011-05-23T12:00:59Z</time>
      </trkpt>
      <trkpt lat="43.04421" lon="-0.48088">
        <ele>1252.735107</ele>
        <time>2011-05-23T12:01:16Z</time>
      </trkpt>
      <trkpt lat="43.04422" lon="-0.48085">
        <ele>1251.773926</ele>
        <time>2011-05-23T12:01:20Z</time>
      </trkpt>
      <trkpt lat="43.04432" lon="-0.48068">
        <ele>1249.370605</ele>
        <time>2011-05-23T12:01:38Z</time>
      </trkpt>
      <trkpt lat="43.04439" lon="-0.48048">
        <ele>1246.967285</ele>
        <time>2011-05-23T12:01:56Z</time>
      </trkpt>
      <trkpt lat="43.04449" lon="-0.48019">
        <ele>1244.563965</ele>
        <time>2011-05-23T12:02:16Z</time>
      </trkpt>
      <trkpt lat="43.04451" lon="-0.48006">
        <ele>1243.121826</ele>
        <time>2011-05-23T12:02:25Z</time>
      </trkpt>
      <trkpt lat="43.04447" lon="-0.47968">
        <ele>1240.718506</ele>
        <time>2011-05-23T12:02:46Z</time>
      </trkpt>
      <trkpt lat="43.04446" lon="-0.47935">
        <ele>1238.31543</ele>
        <time>2011-05-23T12:03:07Z</time>
      </trkpt>
      <trkpt lat="43.04433" lon="-0.47914">
        <ele>1236.392822</ele>
        <time>2011-05-23T12:03:26Z</time>
      </trkpt>
      <trkpt lat="43.04424" lon="-0.47897">
        <ele>1233.989502</ele>
        <time>2011-05-23T12:03:42Z</time>
      </trkpt>
      <trkpt lat="43.04422" lon="-0.47885">
        <ele>1231.586182</ele>
        <time>2011-05-23T12:03:53Z</time>
      </trkpt>
      <trkpt lat="43.04419" lon="-0.47855">
        <ele>1229.182861</ele>
        <time>2011-05-23T12:04:13Z</time>
      </trkpt>
      <trkpt lat="43.04419" lon="-0.47849">
        <ele>1227.260254</ele>
        <time>2011-05-23T12:04:17Z</time>
      </trkpt>
      <trkpt lat="43.04419" lon="-0.47847">
        <ele>1227.260254</ele>
        <time>2011-05-23T12:04:18Z</time>
      </trkpt>
      <trkpt lat="43.04414" lon="-0.47816">
        <ele>1226.298828</ele>
        <time>2011-05-23T12:04:39Z</time>
      </trkpt>
      <trkpt lat="43.04412" lon="-0.47798">
        <ele>1222.934326</ele>
        <time>2011-05-23T12:04:52Z</time>
      </trkpt>
      <trkpt lat="43.0441" lon="-0.47783">
        <ele>1220.531006</ele>
        <time>2011-05-23T12:05:05Z</time>
      </trkpt>
      <trkpt lat="43.0441" lon="-0.47771">
        <ele>1218.127686</ele>
        <time>2011-05-23T12:05:13Z</time>
      </trkpt>
      <trkpt lat="43.04407" lon="-0.47754">
        <ele>1215.243896</ele>
        <time>2011-05-23T12:05:26Z</time>
      </trkpt>
      <trkpt lat="43.04404" lon="-0.47738">
        <ele>1212.840576</ele>
        <time>2011-05-23T12:05:40Z</time>
      </trkpt>
      <trkpt lat="43.04402" lon="-0.47717">
        <ele>1210.437012</ele>
        <time>2011-05-23T12:05:55Z</time>
      </trkpt>
      <trkpt lat="43.04397" lon="-0.4769">
        <ele>1207.07251</ele>
        <time>2011-05-23T12:06:13Z</time>
      </trkpt>
      <trkpt lat="43.04395" lon="-0.47666">
        <ele>1204.669189</ele>
        <time>2011-05-23T12:06:31Z</time>
      </trkpt>
      <trkpt lat="43.04396" lon="-0.47659">
        <ele>1203.227295</ele>
        <time>2011-05-23T12:06:37Z</time>
      </trkpt>
      <trkpt lat="43.04397" lon="-0.4765">
        <ele>1202.265869</ele>
        <time>2011-05-23T12:06:44Z</time>
      </trkpt>
      <trkpt lat="43.04398" lon="-0.47638">
        <ele>1202.265869</ele>
        <time>2011-05-23T12:06:51Z</time>
      </trkpt>
      <trkpt lat="43.04396" lon="-0.47624">
        <ele>1199.38208</ele>
        <time>2011-05-23T12:07:02Z</time>
      </trkpt>
      <trkpt lat="43.04386" lon="-0.47603">
        <ele>1196.498291</ele>
        <time>2011-05-23T12:07:20Z</time>
      </trkpt>
      <trkpt lat="43.04384" lon="-0.47596">
        <ele>1194.575195</ele>
        <time>2011-05-23T12:07:25Z</time>
      </trkpt>
      <trkpt lat="43.04381" lon="-0.47584">
        <ele>1194.094727</ele>
        <time>2011-05-23T12:07:33Z</time>
      </trkpt>
      <trkpt lat="43.04383" lon="-0.47563">
        <ele>1190.72998</ele>
        <time>2011-05-23T12:07:50Z</time>
      </trkpt>
      <trkpt lat="43.04382" lon="-0.47543">
        <ele>1187.365479</ele>
        <time>2011-05-23T12:08:05Z</time>
      </trkpt>
      <trkpt lat="43.0438" lon="-0.47533">
        <ele>1185.923584</ele>
        <time>2011-05-23T12:08:13Z</time>
      </trkpt>
      <trkpt lat="43.04368" lon="-0.47516">
        <ele>1183.039551</ele>
        <time>2011-05-23T12:08:30Z</time>
      </trkpt>
      <trkpt lat="43.04364" lon="-0.47513">
        <ele>1181.117188</ele>
        <time>2011-05-23T12:08:46Z</time>
      </trkpt>
      <trkpt lat="43.04364" lon="-0.47507">
        <ele>1177.752197</ele>
        <time>2011-05-23T12:08:58Z</time>
      </trkpt>
      <trkpt lat="43.04366" lon="-0.47501">
        <ele>1174.387695</ele>
        <time>2011-05-23T12:09:12Z</time>
      </trkpt>
      <trkpt lat="43.04372" lon="-0.47493">
        <ele>1172.465088</ele>
        <time>2011-05-23T12:09:26Z</time>
      </trkpt>
      <trkpt lat="43.04378" lon="-0.4749">
        <ele>1170.061768</ele>
        <time>2011-05-23T12:09:43Z</time>
      </trkpt>
      <trkpt lat="43.04382" lon="-0.47487">
        <ele>1169.100586</ele>
        <time>2011-05-23T12:09:59Z</time>
      </trkpt>
      <trkpt lat="43.04376" lon="-0.47485">
        <ele>1166.697266</ele>
        <time>2011-05-23T12:10:15Z</time>
      </trkpt>
      <trkpt lat="43.0437" lon="-0.47491">
        <ele>1166.697266</ele>
        <time>2011-05-23T12:10:41Z</time>
      </trkpt>
      <trkpt lat="43.04368" lon="-0.47485">
        <ele>1163.33252</ele>
        <time>2011-05-23T12:10:50Z</time>
      </trkpt>
      <trkpt lat="43.04365" lon="-0.4747">
        <ele>1161.409912</ele>
        <time>2011-05-23T12:11:03Z</time>
      </trkpt>
      <trkpt lat="43.04363" lon="-0.47463">
        <ele>1159.967773</ele>
        <time>2011-05-23T12:11:10Z</time>
      </trkpt>
      <trkpt lat="43.04363" lon="-0.47445">
        <ele>1156.122559</ele>
        <time>2011-05-23T12:11:22Z</time>
      </trkpt>
      <trkpt lat="43.04369" lon="-0.47435">
        <ele>1155.161377</ele>
        <time>2011-05-23T12:11:39Z</time>
      </trkpt>
      <trkpt lat="43.04377" lon="-0.47417">
        <ele>1153.719482</ele>
        <time>2011-05-23T12:11:56Z</time>
      </trkpt>
      <trkpt lat="43.04381" lon="-0.47412">
        <ele>1150.35498</ele>
        <time>2011-05-23T12:12:04Z</time>
      </trkpt>
      <trkpt lat="43.04384" lon="-0.47406">
        <ele>1148.432129</ele>
        <time>2011-05-23T12:12:17Z</time>
      </trkpt>
      <trkpt lat="43.04381" lon="-0.4739">
        <ele>1145.067383</ele>
        <time>2011-05-23T12:12:34Z</time>
      </trkpt>
      <trkpt lat="43.04376" lon="-0.47376">
        <ele>1141.702881</ele>
        <time>2011-05-23T12:12:49Z</time>
      </trkpt>
      <trkpt lat="43.04379" lon="-0.47366">
        <ele>1140.260986</ele>
        <time>2011-05-23T12:13:05Z</time>
      </trkpt>
      <trkpt lat="43.04377" lon="-0.47359">
        <ele>1140.741455</ele>
        <time>2011-05-23T12:13:12Z</time>
      </trkpt>
      <trkpt lat="43.04372" lon="-0.4734">
        <ele>1139.299561</ele>
        <time>2011-05-23T12:13:27Z</time>
      </trkpt>
      <trkpt lat="43.04369" lon="-0.47331">
        <ele>1138.338379</ele>
        <time>2011-05-23T12:13:46Z</time>
      </trkpt>
      <trkpt lat="43.04366" lon="-0.47327">
        <ele>1138.338379</ele>
        <time>2011-05-23T12:14:00Z</time>
      </trkpt>
      <trkpt lat="43.04367" lon="-0.47328">
        <ele>1136.89624</ele>
        <time>2011-05-23T12:15:14Z</time>
      </trkpt>
      <trkpt lat="43.04372" lon="-0.47329">
        <ele>1138.819092</ele>
        <time>2011-05-23T12:16:10Z</time>
      </trkpt>
      <trkpt lat="43.04377" lon="-0.47337">
        <ele>1138.819092</ele>
        <time>2011-05-23T12:16:28Z</time>
      </trkpt>
      <trkpt lat="43.04388" lon="-0.47354">
        <ele>1137.376953</ele>
        <time>2011-05-23T12:16:47Z</time>
      </trkpt>
      <trkpt lat="43.04398" lon="-0.47343">
        <ele>1134.493164</ele>
        <time>2011-05-23T12:17:05Z</time>
      </trkpt>
      <trkpt lat="43.04404" lon="-0.47332">
        <ele>1131.608887</ele>
        <time>2011-05-23T12:17:18Z</time>
      </trkpt>
      <trkpt lat="43.04409" lon="-0.47321">
        <ele>1130.166992</ele>
        <time>2011-05-23T12:17:29Z</time>
      </trkpt>
      <trkpt lat="43.04425" lon="-0.47314">
        <ele>1130.647705</ele>
        <time>2011-05-23T12:17:46Z</time>
      </trkpt>
      <trkpt lat="43.04433" lon="-0.47306">
        <ele>1130.647705</ele>
        <time>2011-05-23T12:17:56Z</time>
      </trkpt>
      <trkpt lat="43.04446" lon="-0.47281">
        <ele>1129.686279</ele>
        <time>2011-05-23T12:18:16Z</time>
      </trkpt>
      <trkpt lat="43.04457" lon="-0.47258">
        <ele>1127.763672</ele>
        <time>2011-05-23T12:18:33Z</time>
      </trkpt>
      <trkpt lat="43.04477" lon="-0.47238">
        <ele>1125.841064</ele>
        <time>2011-05-23T12:18:55Z</time>
      </trkpt>
      <trkpt lat="43.04492" lon="-0.47225">
        <ele>1124.879883</ele>
        <time>2011-05-23T12:19:16Z</time>
      </trkpt>
      <trkpt lat="43.04495" lon="-0.47214">
        <ele>1123.437988</ele>
        <time>2011-05-23T12:19:29Z</time>
      </trkpt>
      <trkpt lat="43.04502" lon="-0.4719">
        <ele>1120.553955</ele>
        <time>2011-05-23T12:19:48Z</time>
      </trkpt>
      <trkpt lat="43.04499" lon="-0.47178">
        <ele>1119.592773</ele>
        <time>2011-05-23T12:19:57Z</time>
      </trkpt>
      <trkpt lat="43.0449" lon="-0.47168">
        <ele>1119.592773</ele>
        <time>2011-05-23T12:20:07Z</time>
      </trkpt>
      <trkpt lat="43.04473" lon="-0.47145">
        <ele>1118.150635</ele>
        <time>2011-05-23T12:20:26Z</time>
      </trkpt>
      <trkpt lat="43.04462" lon="-0.47106">
        <ele>1115.747314</ele>
        <time>2011-05-23T12:20:51Z</time>
      </trkpt>
      <trkpt lat="43.04466" lon="-0.47073">
        <ele>1113.824463</ele>
        <time>2011-05-23T12:21:12Z</time>
      </trkpt>
      <trkpt lat="43.04478" lon="-0.47041">
        <ele>1112.382568</ele>
        <time>2011-05-23T12:21:33Z</time>
      </trkpt>
      <trkpt lat="43.04487" lon="-0.47018">
        <ele>1109.498779</ele>
        <time>2011-05-23T12:21:49Z</time>
      </trkpt>
      <trkpt lat="43.04492" lon="-0.46984">
        <ele>1107.095459</ele>
        <time>2011-05-23T12:22:11Z</time>
      </trkpt>
      <trkpt lat="43.04495" lon="-0.46945">
        <ele>1105.172852</ele>
        <time>2011-05-23T12:22:34Z</time>
      </trkpt>
      <trkpt lat="43.0451" lon="-0.46917">
        <ele>1103.730957</ele>
        <time>2011-05-23T12:22:53Z</time>
      </trkpt>
      <trkpt lat="43.04524" lon="-0.46893">
        <ele>1103.250244</ele>
        <time>2011-05-23T12:23:12Z</time>
      </trkpt>
      <trkpt lat="43.0453" lon="-0.46863">
        <ele>1100.846924</ele>
        <time>2011-05-23T12:23:30Z</time>
      </trkpt>
      <trkpt lat="43.04536" lon="-0.46824">
        <ele>1098.924072</ele>
        <time>2011-05-23T12:23:53Z</time>
      </trkpt>
      <trkpt lat="43.0455" lon="-0.46796">
        <ele>1097.001465</ele>
        <time>2011-05-23T12:24:13Z</time>
      </trkpt>
      <trkpt lat="43.04561" lon="-0.46786">
        <ele>1094.598145</ele>
        <time>2011-05-23T12:24:27Z</time>
      </trkpt>
      <trkpt lat="43.04571" lon="-0.46783">
        <ele>1093.636963</ele>
        <time>2011-05-23T12:24:44Z</time>
      </trkpt>
      <trkpt lat="43.04578" lon="-0.46783">
        <ele>1089.791748</ele>
        <time>2011-05-23T12:24:56Z</time>
      </trkpt>
      <trkpt lat="43.04589" lon="-0.46779">
        <ele>1088.349854</ele>
        <time>2011-05-23T12:25:12Z</time>
      </trkpt>
      <trkpt lat="43.046" lon="-0.4678">
        <ele>1085.946533</ele>
        <time>2011-05-23T12:25:26Z</time>
      </trkpt>
      <trkpt lat="43.04603" lon="-0.46779">
        <ele>1084.504639</ele>
        <time>2011-05-23T12:25:30Z</time>
      </trkpt>
      <trkpt lat="43.04607" lon="-0.46774">
        <ele>1083.062256</ele>
        <time>2011-05-23T12:25:35Z</time>
      </trkpt>
      <trkpt lat="43.04618" lon="-0.46762">
        <ele>1081.139893</ele>
        <time>2011-05-23T12:25:47Z</time>
      </trkpt>
      <trkpt lat="43.04632" lon="-0.46749">
        <ele>1081.139893</ele>
        <time>2011-05-23T12:25:59Z</time>
      </trkpt>
      <trkpt lat="43.04646" lon="-0.46744">
        <ele>1080.65918</ele>
        <time>2011-05-23T12:26:12Z</time>
      </trkpt>
      <trkpt lat="43.04662" lon="-0.46743">
        <ele>1078.255859</ele>
        <time>2011-05-23T12:26:26Z</time>
      </trkpt>
      <trkpt lat="43.04675" lon="-0.46747">
        <ele>1077.294678</ele>
        <time>2011-05-23T12:26:38Z</time>
      </trkpt>
      <trkpt lat="43.04679" lon="-0.46748">
        <ele>1076.813965</ele>
        <time>2011-05-23T12:26:42Z</time>
      </trkpt>
      <trkpt lat="43.0469" lon="-0.46747">
        <ele>1073.449463</ele>
        <time>2011-05-23T12:26:57Z</time>
      </trkpt>
      <trkpt lat="43.04703" lon="-0.46754">
        <ele>1070.084717</ele>
        <time>2011-05-23T12:27:13Z</time>
      </trkpt>
      <trkpt lat="43.04703" lon="-0.46754">
        <ele>1070.56543</ele>
        <time>2011-05-23T12:27:14Z</time>
      </trkpt>
      <trkpt lat="43.04714" lon="-0.46753">
        <ele>1068.162109</ele>
        <time>2011-05-23T12:27:28Z</time>
      </trkpt>
      <trkpt lat="43.04723" lon="-0.46758">
        <ele>1065.758789</ele>
        <time>2011-05-23T12:27:42Z</time>
      </trkpt>
      <trkpt lat="43.04736" lon="-0.46765">
        <ele>1063.355469</ele>
        <time>2011-05-23T12:27:57Z</time>
      </trkpt>
      <trkpt lat="43.04743" lon="-0.46766">
        <ele>1060.952148</ele>
        <time>2011-05-23T12:28:10Z</time>
      </trkpt>
      <trkpt lat="43.04748" lon="-0.4677">
        <ele>1059.510254</ele>
        <time>2011-05-23T12:28:22Z</time>
      </trkpt>
      <trkpt lat="43.04761" lon="-0.46775">
        <ele>1057.587646</ele>
        <time>2011-05-23T12:28:36Z</time>
      </trkpt>
      <trkpt lat="43.04771" lon="-0.46781">
        <ele>1055.665039</ele>
        <time>2011-05-23T12:28:48Z</time>
      </trkpt>
      <trkpt lat="43.04784" lon="-0.46782">
        <ele>1054.223145</ele>
        <time>2011-05-23T12:28:59Z</time>
      </trkpt>
      <trkpt lat="43.04797" lon="-0.46782">
        <ele>1052.300293</ele>
        <time>2011-05-23T12:29:11Z</time>
      </trkpt>
      <trkpt lat="43.048" lon="-0.46781">
        <ele>1050.858154</ele>
        <time>2011-05-23T12:29:23Z</time>
      </trkpt>
      <trkpt lat="43.04809" lon="-0.4678">
        <ele>1048.935547</ele>
        <time>2011-05-23T12:29:34Z</time>
      </trkpt>
      <trkpt lat="43.04825" lon="-0.46772">
        <ele>1046.532471</ele>
        <time>2011-05-23T12:29:51Z</time>
      </trkpt>
      <trkpt lat="43.04843" lon="-0.46764">
        <ele>1045.571045</ele>
        <time>2011-05-23T12:30:06Z</time>
      </trkpt>
      <trkpt lat="43.04847" lon="-0.46762">
        <ele>1045.571045</ele>
        <time>2011-05-23T12:30:09Z</time>
      </trkpt>
      <trkpt lat="43.04866" lon="-0.46752">
        <ele>1041.72583</ele>
        <time>2011-05-23T12:30:25Z</time>
      </trkpt>
      <trkpt lat="43.04872" lon="-0.46741">
        <ele>1040.764404</ele>
        <time>2011-05-23T12:30:38Z</time>
      </trkpt>
      <trkpt lat="43.04878" lon="-0.46733">
        <ele>1038.842041</ele>
        <time>2011-05-23T12:30:47Z</time>
      </trkpt>
      <trkpt lat="43.04881" lon="-0.4673">
        <ele>1037.880615</ele>
        <time>2011-05-23T12:30:50Z</time>
      </trkpt>
      <trkpt lat="43.04885" lon="-0.46726">
        <ele>1037.399902</ele>
        <time>2011-05-23T12:30:54Z</time>
      </trkpt>
      <trkpt lat="43.04903" lon="-0.46711">
        <ele>1036.919189</ele>
        <time>2011-05-23T12:31:12Z</time>
      </trkpt>
      <trkpt lat="43.0491" lon="-0.46708">
        <ele>1035.957764</ele>
        <time>2011-05-23T12:31:19Z</time>
      </trkpt>
      <trkpt lat="43.04918" lon="-0.46701">
        <ele>1034.515869</ele>
        <time>2011-05-23T12:31:31Z</time>
      </trkpt>
      <trkpt lat="43.04924" lon="-0.46699">
        <ele>1033.554443</ele>
        <time>2011-05-23T12:31:36Z</time>
      </trkpt>
      <trkpt lat="43.04942" lon="-0.46689">
        <ele>1032.112549</ele>
        <time>2011-05-23T12:31:51Z</time>
      </trkpt>
      <trkpt lat="43.04954" lon="-0.4668">
        <ele>1031.631836</ele>
        <time>2011-05-23T12:32:04Z</time>
      </trkpt>
      <trkpt lat="43.04956" lon="-0.46678">
        <ele>1031.151367</ele>
        <time>2011-05-23T12:32:06Z</time>
      </trkpt>
      <trkpt lat="43.04967" lon="-0.46663">
        <ele>1029.228516</ele>
        <time>2011-05-23T12:32:20Z</time>
      </trkpt>
      <trkpt lat="43.04977" lon="-0.46651">
        <ele>1028.267334</ele>
        <time>2011-05-23T12:32:34Z</time>
      </trkpt>
      <trkpt lat="43.04982" lon="-0.46644">
        <ele>1024.902832</ele>
        <time>2011-05-23T12:32:45Z</time>
      </trkpt>
      <trkpt lat="43.04984" lon="-0.46637">
        <ele>1023.941406</ele>
        <time>2011-05-23T12:32:51Z</time>
      </trkpt>
      <trkpt lat="43.04985" lon="-0.46618">
        <ele>1022.018799</ele>
        <time>2011-05-23T12:33:08Z</time>
      </trkpt>
      <trkpt lat="43.04983" lon="-0.46608">
        <ele>1020.096191</ele>
        <time>2011-05-23T12:33:18Z</time>
      </trkpt>
      <trkpt lat="43.04987" lon="-0.46593">
        <ele>1016.731445</ele>
        <time>2011-05-23T12:33:34Z</time>
      </trkpt>
      <trkpt lat="43.04995" lon="-0.46581">
        <ele>1013.366943</ele>
        <time>2011-05-23T12:33:47Z</time>
      </trkpt>
      <trkpt lat="43.04998" lon="-0.46577">
        <ele>1013.847412</ele>
        <time>2011-05-23T12:33:51Z</time>
      </trkpt>
      <trkpt lat="43.05001" lon="-0.46573">
        <ele>1013.847412</ele>
        <time>2011-05-23T12:33:54Z</time>
      </trkpt>
      <trkpt lat="43.05008" lon="-0.46558">
        <ele>1011.444336</ele>
        <time>2011-05-23T12:34:07Z</time>
      </trkpt>
      <trkpt lat="43.05012" lon="-0.46545">
        <ele>1009.041016</ele>
        <time>2011-05-23T12:34:18Z</time>
      </trkpt>
      <trkpt lat="43.05018" lon="-0.46532">
        <ele>1006.637695</ele>
        <time>2011-05-23T12:34:33Z</time>
      </trkpt>
      <trkpt lat="43.05022" lon="-0.46518">
        <ele>1005.195801</ele>
        <time>2011-05-23T12:34:45Z</time>
      </trkpt>
      <trkpt lat="43.05026" lon="-0.46505">
        <ele>1001.831055</ele>
        <time>2011-05-23T12:34:57Z</time>
      </trkpt>
      <trkpt lat="43.05027" lon="-0.46504">
        <ele>1001.350342</ele>
        <time>2011-05-23T12:34:59Z</time>
      </trkpt>
      <trkpt lat="43.05031" lon="-0.46483">
        <ele>998.466309</ele>
        <time>2011-05-23T12:35:13Z</time>
      </trkpt>
      <trkpt lat="43.05033" lon="-0.4646">
        <ele>996.543945</ele>
        <time>2011-05-23T12:35:28Z</time>
      </trkpt>
      <trkpt lat="43.05039" lon="-0.46449">
        <ele>993.659912</ele>
        <time>2011-05-23T12:35:41Z</time>
      </trkpt>
      <trkpt lat="43.05051" lon="-0.4645">
        <ele>991.256592</ele>
        <time>2011-05-23T12:35:54Z</time>
      </trkpt>
      <trkpt lat="43.05052" lon="-0.4645">
        <ele>990.775879</ele>
        <time>2011-05-23T12:35:55Z</time>
      </trkpt>
      <trkpt lat="43.05064" lon="-0.46457">
        <ele>988.372803</ele>
        <time>2011-05-23T12:36:08Z</time>
      </trkpt>
      <trkpt lat="43.05082" lon="-0.46471">
        <ele>986.449951</ele>
        <time>2011-05-23T12:36:22Z</time>
      </trkpt>
      <trkpt lat="43.05082" lon="-0.46474">
        <ele>985.008057</ele>
        <time>2011-05-23T12:36:25Z</time>
      </trkpt>
      <trkpt lat="43.05086" lon="-0.46479">
        <ele>982.124023</ele>
        <time>2011-05-23T12:36:32Z</time>
      </trkpt>
      <trkpt lat="43.05085" lon="-0.46479">
        <ele>981.643311</ele>
        <time>2011-05-23T12:36:33Z</time>
      </trkpt>
      <trkpt lat="43.05085" lon="-0.46479">
        <ele>979.720703</ele>
        <time>2011-05-23T12:36:53Z</time>
      </trkpt>
      <trkpt lat="43.05095" lon="-0.46487">
        <ele>977.798096</ele>
        <time>2011-05-23T12:37:06Z</time>
      </trkpt>
      <trkpt lat="43.05097" lon="-0.46488">
        <ele>977.798096</ele>
        <time>2011-05-23T12:37:07Z</time>
      </trkpt>
      <trkpt lat="43.05109" lon="-0.46494">
        <ele>974.914307</ele>
        <time>2011-05-23T12:37:14Z</time>
      </trkpt>
      <trkpt lat="43.05103" lon="-0.46493">
        <ele>972.991699</ele>
        <time>2011-05-23T12:37:27Z</time>
      </trkpt>
      <trkpt lat="43.05107" lon="-0.46492">
        <ele>972.510986</ele>
        <time>2011-05-23T12:37:30Z</time>
      </trkpt>
      <trkpt lat="43.05124" lon="-0.46491">
        <ele>971.068848</ele>
        <time>2011-05-23T12:37:36Z</time>
      </trkpt>
      <trkpt lat="43.05128" lon="-0.46502">
        <ele>968.665527</ele>
        <time>2011-05-23T12:37:49Z</time>
      </trkpt>
      <trkpt lat="43.05126" lon="-0.465">
        <ele>969.14624</ele>
        <time>2011-05-23T12:38:22Z</time>
      </trkpt>
      <trkpt lat="43.05138" lon="-0.46498">
        <ele>965.781738</ele>
        <time>2011-05-23T12:38:37Z</time>
      </trkpt>
      <trkpt lat="43.0514" lon="-0.46493">
        <ele>962.416992</ele>
        <time>2011-05-23T12:38:47Z</time>
      </trkpt>
      <trkpt lat="43.05146" lon="-0.46492">
        <ele>960.013672</ele>
        <time>2011-05-23T12:39:01Z</time>
      </trkpt>
      <trkpt lat="43.05153" lon="-0.46497">
        <ele>957.129883</ele>
        <time>2011-05-23T12:39:11Z</time>
      </trkpt>
      <trkpt lat="43.05155" lon="-0.46498">
        <ele>955.687744</ele>
        <time>2011-05-23T12:39:14Z</time>
      </trkpt>
      <trkpt lat="43.05167" lon="-0.46506">
        <ele>953.765137</ele>
        <time>2011-05-23T12:39:27Z</time>
      </trkpt>
      <trkpt lat="43.05182" lon="-0.4651">
        <ele>950.881104</ele>
        <time>2011-05-23T12:39:42Z</time>
      </trkpt>
      <trkpt lat="43.05189" lon="-0.46511">
        <ele>949.919922</ele>
        <time>2011-05-23T12:39:47Z</time>
      </trkpt>
      <trkpt lat="43.05196" lon="-0.46513">
        <ele>949.919922</ele>
        <time>2011-05-23T12:40:01Z</time>
      </trkpt>
      <trkpt lat="43.05205" lon="-0.46516">
        <ele>947.997314</ele>
        <time>2011-05-23T12:40:09Z</time>
      </trkpt>
      <trkpt lat="43.05222" lon="-0.46522">
        <ele>944.1521</ele>
        <time>2011-05-23T12:40:22Z</time>
      </trkpt>
      <trkpt lat="43.05233" lon="-0.46525">
        <ele>942.710205</ele>
        <time>2011-05-23T12:40:32Z</time>
      </trkpt>
      <trkpt lat="43.0526" lon="-0.46532">
        <ele>939.825928</ele>
        <time>2011-05-23T12:40:51Z</time>
      </trkpt>
      <trkpt lat="43.05285" lon="-0.46536">
        <ele>937.90332</ele>
        <time>2011-05-23T12:41:12Z</time>
      </trkpt>
      <trkpt lat="43.05312" lon="-0.46541">
        <ele>934.058105</ele>
        <time>2011-05-23T12:41:33Z</time>
      </trkpt>
      <trkpt lat="43.0533" lon="-0.46542">
        <ele>934.058105</ele>
        <time>2011-05-23T12:41:47Z</time>
      </trkpt>
      <trkpt lat="43.0536" lon="-0.46547">
        <ele>932.616211</ele>
        <time>2011-05-23T12:42:10Z</time>
      </trkpt>
      <trkpt lat="43.05382" lon="-0.46549">
        <ele>931.174316</ele>
        <time>2011-05-23T12:42:27Z</time>
      </trkpt>
      <trkpt lat="43.05406" lon="-0.46551">
        <ele>930.212891</ele>
        <time>2011-05-23T12:42:45Z</time>
      </trkpt>
      <trkpt lat="43.05411" lon="-0.46552">
        <ele>929.251465</ele>
        <time>2011-05-23T12:42:59Z</time>
      </trkpt>
      <trkpt lat="43.05407" lon="-0.46552">
        <ele>929.251465</ele>
        <time>2011-05-23T12:43:28Z</time>
      </trkpt>
      <trkpt lat="43.05408" lon="-0.46556">
        <ele>930.212891</ele>
        <time>2011-05-23T12:44:02Z</time>
      </trkpt>
      <trkpt lat="43.05409" lon="-0.46555">
        <ele>930.212891</ele>
        <time>2011-05-23T12:44:18Z</time>
      </trkpt>
      <trkpt lat="43.05434" lon="-0.46539">
        <ele>928.770996</ele>
        <time>2011-05-23T12:44:38Z</time>
      </trkpt>
      <trkpt lat="43.05438" lon="-0.46533">
        <ele>927.80957</ele>
        <time>2011-05-23T12:44:46Z</time>
      </trkpt>
      <trkpt lat="43.05442" lon="-0.46532">
        <ele>927.80957</ele>
        <time>2011-05-23T12:44:49Z</time>
      </trkpt>
      <trkpt lat="43.05447" lon="-0.46529">
        <ele>927.329102</ele>
        <time>2011-05-23T12:44:53Z</time>
      </trkpt>
      <trkpt lat="43.05464" lon="-0.46515">
        <ele>925.40625</ele>
        <time>2011-05-23T12:45:09Z</time>
      </trkpt>
      <trkpt lat="43.05478" lon="-0.46504">
        <ele>923.483643</ele>
        <time>2011-05-23T12:45:22Z</time>
      </trkpt>
      <trkpt lat="43.055" lon="-0.46493">
        <ele>920.599609</ele>
        <time>2011-05-23T12:45:40Z</time>
      </trkpt>
      <trkpt lat="43.0552" lon="-0.46487">
        <ele>919.157715</ele>
        <time>2011-05-23T12:45:56Z</time>
      </trkpt>
      <trkpt lat="43.05547" lon="-0.46483">
        <ele>917.235107</ele>
        <time>2011-05-23T12:46:16Z</time>
      </trkpt>
      <trkpt lat="43.05574" lon="-0.46473">
        <ele>916.273682</ele>
        <time>2011-05-23T12:46:36Z</time>
      </trkpt>
      <trkpt lat="43.05585" lon="-0.46466">
        <ele>915.3125</ele>
        <time>2011-05-23T12:46:45Z</time>
      </trkpt>
      <trkpt lat="43.0559" lon="-0.46461">
        <ele>915.3125</ele>
        <time>2011-05-23T12:46:50Z</time>
      </trkpt>
      <trkpt lat="43.05606" lon="-0.46447">
        <ele>914.831787</ele>
        <time>2011-05-23T12:47:05Z</time>
      </trkpt>
      <trkpt lat="43.05615" lon="-0.46438">
        <ele>914.351074</ele>
        <time>2011-05-23T12:47:19Z</time>
      </trkpt>
      <trkpt lat="43.05609" lon="-0.46447">
        <ele>915.3125</ele>
        <time>2011-05-23T12:47:33Z</time>
      </trkpt>
      <trkpt lat="43.05613" lon="-0.46442">
        <ele>914.831787</ele>
        <time>2011-05-23T12:47:47Z</time>
      </trkpt>
      <trkpt lat="43.0561" lon="-0.46447">
        <ele>914.831787</ele>
        <time>2011-05-23T12:47:55Z</time>
      </trkpt>
      <trkpt lat="43.05605" lon="-0.46452">
        <ele>914.831787</ele>
        <time>2011-05-23T12:48:07Z</time>
      </trkpt>
      <trkpt lat="43.0562" lon="-0.46434">
        <ele>912.90918</ele>
        <time>2011-05-23T12:48:26Z</time>
      </trkpt>
      <trkpt lat="43.05638" lon="-0.46414">
        <ele>910.986572</ele>
        <time>2011-05-23T12:48:45Z</time>
      </trkpt>
      <trkpt lat="43.05659" lon="-0.46398">
        <ele>908.102783</ele>
        <time>2011-05-23T12:49:05Z</time>
      </trkpt>
      <trkpt lat="43.05672" lon="-0.46393">
        <ele>906.179688</ele>
        <time>2011-05-23T12:49:16Z</time>
      </trkpt>
      <trkpt lat="43.05692" lon="-0.46382">
        <ele>903.776611</ele>
        <time>2011-05-23T12:49:33Z</time>
      </trkpt>
      <trkpt lat="43.05706" lon="-0.46378">
        <ele>902.815186</ele>
        <time>2011-05-23T12:49:47Z</time>
      </trkpt>
      <trkpt lat="43.05716" lon="-0.46375">
        <ele>901.854004</ele>
        <time>2011-05-23T12:49:59Z</time>
      </trkpt>
      <trkpt lat="43.05732" lon="-0.46374">
        <ele>900.892578</ele>
        <time>2011-05-23T12:50:14Z</time>
      </trkpt>
      <trkpt lat="43.05757" lon="-0.46368">
        <ele>898.489258</ele>
        <time>2011-05-23T12:50:32Z</time>
      </trkpt>
      <trkpt lat="43.05776" lon="-0.46358">
        <ele>897.047363</ele>
        <time>2011-05-23T12:50:48Z</time>
      </trkpt>
      <trkpt lat="43.05792" lon="-0.46349">
        <ele>896.086182</ele>
        <time>2011-05-23T12:51:01Z</time>
      </trkpt>
      <trkpt lat="43.05795" lon="-0.46347">
        <ele>896.086182</ele>
        <time>2011-05-23T12:51:04Z</time>
      </trkpt>
      <trkpt lat="43.05807" lon="-0.46341">
        <ele>893.202148</ele>
        <time>2011-05-23T12:51:17Z</time>
      </trkpt>
      <trkpt lat="43.0581" lon="-0.46341">
        <ele>892.240967</ele>
        <time>2011-05-23T12:51:19Z</time>
      </trkpt>
      <trkpt lat="43.0582" lon="-0.46337">
        <ele>890.318115</ele>
        <time>2011-05-23T12:51:26Z</time>
      </trkpt>
      <trkpt lat="43.0584" lon="-0.4633">
        <ele>888.395508</ele>
        <time>2011-05-23T12:51:41Z</time>
      </trkpt>
      <trkpt lat="43.05857" lon="-0.46321">
        <ele>887.434082</ele>
        <time>2011-05-23T12:51:56Z</time>
      </trkpt>
      <trkpt lat="43.05877" lon="-0.46312">
        <ele>884.550293</ele>
        <time>2011-05-23T12:52:14Z</time>
      </trkpt>
      <trkpt lat="43.05889" lon="-0.46309">
        <ele>883.588867</ele>
        <time>2011-05-23T12:52:32Z</time>
      </trkpt>
      <trkpt lat="43.05888" lon="-0.4631">
        <ele>884.06958</ele>
        <time>2011-05-23T12:52:57Z</time>
      </trkpt>
      <trkpt lat="43.05887" lon="-0.46311">
        <ele>883.588867</ele>
        <time>2011-05-23T12:53:14Z</time>
      </trkpt>
      <trkpt lat="43.05889" lon="-0.4631">
        <ele>883.588867</ele>
        <time>2011-05-23T12:53:31Z</time>
      </trkpt>
    </trkseg>
  </trk>
</gpx>